Darstellungsparameter: Aktuell verwendete Einstellungen:
Skalierung der Graphiken ... ?
xyx+y,   Skalierungsfaktor:      Skalierung: Modus: x, Faktor: 1
Darstellungszeitraum ... ?
Vom - - bis: - -   Zeitraum: 05.06.2021 - 11.06.2021
Min/Max/Avg-Anzeige ... ?
Zeige MMA aktuell
Zeige MMA Monat
Zeige MMA alles
Zeige --A aktuell
Zeige --A Monat
Zeige --A alles
Keine MMA-Anzeige
MMA:
Keine MMA-Graphiken
MMA-Basis: 05.06.2021 - 11.06.2021
Quicknavigation für Darstellung... ?
Tage:      1T, 2T, 3T, 5T -1T -2T -3T -5T +1T +2T +3T +5T
Wochen: 1W, 2W, 3W -1W -2W -3W +1W +2W +3W
Monate: 1M, 3M, 6M -1M -3M -6M +1M +3M +6M
Jahre:    1J, 3J, 5J, 10J -1J -3J -5J -10J +1J +3J +5J +10J
Nutze für die Darstellung ... ?
Originaldaten oder Mittelwerte auf ...
Stundenbasis Tagesbasis Wochenbasis
Monatsbasis Jahresbasis      Datenbasis: Original-Daten
Darstellen als:
Statistik (Auto) Statistik J:M      Darstellung:
Zur Graphik,    zurück zur Übersicht aller Sensoren.
 
Tabellarische Datenbersicht: ?
 
Sensor: Nr:Datum:Temp:Feuchte:Taupunkt:
Aussen-T/F 1 05-06-2021 00:00:00 16.7 C 95 % 15.9 C
2 05-06-2021 00:05:00 16.7 C 95 % 15.9 C
3 05-06-2021 00:10:00 16.6 C 95 % 15.8 C
4 05-06-2021 00:15:00 16.6 C 95 % 15.8 C
5 05-06-2021 00:20:00 16.6 C 95 % 15.8 C
6 05-06-2021 00:25:00 16.5 C 95 % 15.7 C
7 05-06-2021 00:30:00 16.4 C 95 % 15.6 C
8 05-06-2021 00:35:00 16.4 C 95 % 15.6 C
9 05-06-2021 00:40:00 16.4 C 95 % 15.6 C
10 05-06-2021 00:45:00 16.3 C 95 % 15.5 C
11 05-06-2021 00:50:00 16.3 C 95 % 15.5 C
12 05-06-2021 00:55:00 16.3 C 95 % 15.5 C
13 05-06-2021 01:00:00 16.3 C 95 % 15.5 C
14 05-06-2021 01:05:00 16.2 C 95 % 15.4 C
15 05-06-2021 01:10:00 16.2 C 95 % 15.4 C
16 05-06-2021 01:15:00 16.1 C 95 % 15.3 C
17 05-06-2021 01:20:00 16.1 C 95 % 15.3 C
18 05-06-2021 01:25:00 16.1 C 95 % 15.3 C
19 05-06-2021 01:30:00 16 C 95 % 15.2 C
20 05-06-2021 01:35:00 16 C 95 % 15.2 C
21 05-06-2021 01:40:00 15.9 C 95 % 15.1 C
22 05-06-2021 01:45:00 15.9 C 95 % 15.1 C
23 05-06-2021 01:50:00 15.8 C 96 % 15.16 C
24 05-06-2021 01:55:00 15.8 C 95 % 15 C
25 05-06-2021 02:00:00 15.7 C 95 % 14.9 C
Sensor: Nr:Datum:Temp:Feuchte:Taupunkt:
Aussen-T/F 26 05-06-2021 02:05:00 15.7 C 95 % 14.9 C
27 05-06-2021 02:10:00 15.6 C 95 % 14.8 C
28 05-06-2021 02:15:00 15.7 C 96 % 15.06 C
29 05-06-2021 02:20:00 15.7 C 96 % 15.06 C
30 05-06-2021 02:25:00 15.7 C 96 % 15.06 C
31 05-06-2021 02:30:00 15.8 C 96 % 15.16 C
32 05-06-2021 02:35:00 15.9 C 96 % 15.26 C
33 05-06-2021 02:40:00 16 C 97 % 15.52 C
34 05-06-2021 02:45:00 16.1 C 96 % 15.46 C
35 05-06-2021 02:50:00 16.1 C 96 % 15.46 C
36 05-06-2021 02:55:00 16.2 C 96 % 15.56 C
37 05-06-2021 03:00:00 16.2 C 96 % 15.56 C
38 05-06-2021 03:05:00 16.2 C 96 % 15.56 C
39 05-06-2021 03:10:00 16.1 C 96 % 15.46 C
40 05-06-2021 03:15:00 16.1 C 96 % 15.46 C
41 05-06-2021 03:20:00 16 C 96 % 15.36 C
42 05-06-2021 03:25:00 15.9 C 96 % 15.26 C
43 05-06-2021 03:30:00 15.8 C 96 % 15.16 C
44 05-06-2021 03:35:00 15.7 C 96 % 15.06 C
45 05-06-2021 03:40:00 15.6 C 96 % 14.96 C
46 05-06-2021 03:45:00 15.5 C 96 % 14.86 C
47 05-06-2021 03:50:00 15.4 C 96 % 14.77 C
48 05-06-2021 03:55:00 15.3 C 96 % 14.67 C
49 05-06-2021 04:00:00 15.3 C 96 % 14.67 C
50 05-06-2021 04:05:00 15.3 C 96 % 14.67 C
Sensor: Nr:Datum:Temp:Feuchte:Taupunkt:
Aussen-T/F 51 05-06-2021 04:10:00 15.2 C 96 % 14.57 C
52 05-06-2021 04:15:00 15.2 C 96 % 14.57 C
53 05-06-2021 04:20:00 15.2 C 96 % 14.57 C
54 05-06-2021 04:25:00 15.2 C 96 % 14.57 C
55 05-06-2021 04:30:00 15.2 C 96 % 14.57 C
56 05-06-2021 04:35:00 15.2 C 96 % 14.57 C
57 05-06-2021 04:40:00 15.2 C 96 % 14.57 C
58 05-06-2021 04:45:00 15.2 C 96 % 14.57 C
59 05-06-2021 04:50:00 15.2 C 97 % 14.73 C
60 05-06-2021 04:55:00 15.3 C 97 % 14.83 C
61 05-06-2021 05:00:00 15.2 C 97 % 14.73 C
62 05-06-2021 05:05:00 15.3 C 97 % 14.83 C
63 05-06-2021 05:10:00 15.3 C 97 % 14.83 C
64 05-06-2021 05:15:00 15.3 C 97 % 14.83 C
65 05-06-2021 05:20:00 15.3 C 97 % 14.83 C
66 05-06-2021 05:25:00 15.3 C 97 % 14.83 C
67 05-06-2021 05:30:00 15.3 C 97 % 14.83 C
68 05-06-2021 05:35:00 15.3 C 97 % 14.83 C
69 05-06-2021 05:40:00 15.3 C 97 % 14.83 C
70 05-06-2021 05:45:00 15.3 C 97 % 14.83 C
71 05-06-2021 05:50:00 15.3 C 97 % 14.83 C
72 05-06-2021 05:55:00 15.4 C 97 % 14.93 C
73 05-06-2021 06:00:00 15.4 C 97 % 14.93 C
74 05-06-2021 06:05:00 15.5 C 97 % 15.03 C
75 05-06-2021 06:10:00 15.6 C 97 % 15.13 C
Sensor: Nr:Datum:Temp:Feuchte:Taupunkt:
Aussen-T/F 76 05-06-2021 06:15:00 15.7 C 97 % 15.23 C
77 05-06-2021 06:20:00 15.7 C 97 % 15.23 C
78 05-06-2021 06:25:00 15.7 C 97 % 15.23 C
79 05-06-2021 06:30:00 15.7 C 97 % 15.23 C
80 05-06-2021 06:35:00 15.7 C 97 % 15.23 C
81 05-06-2021 06:40:00 15.8 C 97 % 15.32 C
82 05-06-2021 06:45:00 15.8 C 97 % 15.32 C
83 05-06-2021 06:50:00 15.8 C 97 % 15.32 C
84 05-06-2021 06:55:00 15.8 C 97 % 15.32 C
85 05-06-2021 07:00:00 15.9 C 97 % 15.42 C
86 05-06-2021 07:05:00 15.9 C 97 % 15.42 C
87 05-06-2021 07:10:00 15.9 C 97 % 15.42 C
88 05-06-2021 07:15:00 15.9 C 97 % 15.42 C
89 05-06-2021 07:20:00 16 C 97 % 15.52 C
90 05-06-2021 07:25:00 15.9 C 97 % 15.42 C
91 05-06-2021 07:30:00 15.9 C 97 % 15.42 C
92 05-06-2021 07:35:00 15.9 C 97 % 15.42 C
93 05-06-2021 07:40:00 16 C 97 % 15.52 C
94 05-06-2021 07:45:00 16 C 97 % 15.52 C
95 05-06-2021 07:50:00 15.9 C 97 % 15.42 C
96 05-06-2021 07:55:00 15.9 C 97 % 15.42 C
97 05-06-2021 08:00:00 15.9 C 97 % 15.42 C
98 05-06-2021 08:05:00 15.8 C 97 % 15.32 C
99 05-06-2021 08:10:00 15.8 C 97 % 15.32 C
100 05-06-2021 08:15:00 15.9 C 97 % 15.42 C
Sensor: Nr:Datum:Temp:Feuchte:Taupunkt:
Aussen-T/F 101 05-06-2021 08:20:00 15.9 C 97 % 15.42 C
102 05-06-2021 08:25:00 15.9 C 97 % 15.42 C
103 05-06-2021 08:30:00 16 C 97 % 15.52 C
104 05-06-2021 08:35:00 16.1 C 97 % 15.62 C
105 05-06-2021 08:40:00 16.1 C 97 % 15.62 C
106 05-06-2021 08:45:00 16.1 C 97 % 15.62 C
107 05-06-2021 08:50:00 16.2 C 97 % 15.72 C
108 05-06-2021 08:55:00 16.3 C 97 % 15.82 C
109 05-06-2021 09:00:00 16.3 C 97 % 15.82 C
110 05-06-2021 09:05:00 16.3 C 97 % 15.82 C
111 05-06-2021 09:10:00 16.3 C 97 % 15.82 C
112 05-06-2021 09:15:00 16.4 C 97 % 15.92 C
113 05-06-2021 09:20:00 16.6 C 97 % 16.12 C
114 05-06-2021 09:25:00 16.7 C 97 % 16.22 C
115 05-06-2021 09:30:00 16.8 C 97 % 16.32 C
116 05-06-2021 09:35:00 16.9 C 97 % 16.42 C
117 05-06-2021 09:40:00 17.1 C 97 % 16.62 C
118 05-06-2021 09:45:00 17.1 C 97 % 16.62 C
119 05-06-2021 09:50:00 17.3 C 97 % 16.82 C
120 05-06-2021 09:55:00 17.3 C 97 % 16.82 C
121 05-06-2021 10:00:00 17.2 C 96 % 16.56 C
122 05-06-2021 10:05:00 17.2 C 95 % 16.39 C
123 05-06-2021 10:10:00 17.3 C 95 % 16.49 C
124 05-06-2021 10:15:00 17.4 C 95 % 16.59 C
125 05-06-2021 10:20:00 17.4 C 94 % 16.42 C
Sensor: Nr:Datum:Temp:Feuchte:Taupunkt:
Aussen-T/F 126 05-06-2021 10:25:00 17.4 C 94 % 16.42 C
127 05-06-2021 10:30:00 17.6 C 94 % 16.62 C
128 05-06-2021 10:35:00 17.7 C 94 % 16.72 C
129 05-06-2021 10:40:00 17.8 C 94 % 16.82 C
130 05-06-2021 10:45:00 17.9 C 94 % 16.92 C
131 05-06-2021 10:50:00 18.1 C 93 % 16.95 C
132 05-06-2021 10:55:00 18.1 C 93 % 16.95 C
133 05-06-2021 11:00:00 18.2 C 93 % 17.05 C
134 05-06-2021 11:05:00 18.2 C 93 % 17.05 C
135 05-06-2021 11:10:00 18.4 C 93 % 17.25 C
136 05-06-2021 11:15:00 18.7 C 93 % 17.54 C
137 05-06-2021 11:20:00 18.8 C 93 % 17.64 C
138 05-06-2021 11:25:00 18.8 C 91 % 17.3 C
139 05-06-2021 11:30:00 18.8 C 92 % 17.47 C
140 05-06-2021 11:35:00 18.9 C 91 % 17.4 C
141 05-06-2021 11:40:00 18.8 C 91 % 17.3 C
142 05-06-2021 11:45:00 18.9 C 91 % 17.4 C
143 05-06-2021 11:50:00 18.9 C 89 % 17.05 C
144 05-06-2021 11:55:00 18.9 C 89 % 17.05 C
145 05-06-2021 12:00:00 18.9 C 89 % 17.05 C
146 05-06-2021 12:05:00 19 C 88 % 16.97 C
147 05-06-2021 12:10:00 19 C 87 % 16.79 C
148 05-06-2021 12:15:00 19.1 C 87 % 16.89 C
149 05-06-2021 12:20:00 19.1 C 88 % 17.07 C
150 05-06-2021 12:25:00 19.2 C 88 % 17.16 C
Sensor: Nr:Datum:Temp:Feuchte:Taupunkt:
Aussen-T/F 151 05-06-2021 12:30:00 19.3 C 87 % 17.08 C
152 05-06-2021 12:35:00 19.4 C 87 % 17.18 C
153 05-06-2021 12:40:00 19.5 C 87 % 17.28 C
154 05-06-2021 12:45:00 19.7 C 87 % 17.47 C
155 05-06-2021 12:50:00 19.6 C 86 % 17.19 C
156 05-06-2021 12:55:00 19.6 C 87 % 17.38 C
157 05-06-2021 13:00:00 19.6 C 86 % 17.19 C
158 05-06-2021 13:05:00 19.4 C 84 % 16.63 C
159 05-06-2021 13:10:00 19.4 C 86 % 17 C
160 05-06-2021 13:15:00 19.5 C 86 % 17.1 C
161 05-06-2021 13:20:00 19.6 C 87 % 17.38 C
162 05-06-2021 13:25:00 19.7 C 85 % 17.11 C
163 05-06-2021 13:30:00 19.6 C 84 % 16.82 C
164 05-06-2021 13:35:00 19.7 C 86 % 17.29 C
165 05-06-2021 13:40:00 19.9 C 84 % 17.12 C
166 05-06-2021 13:45:00 20.1 C 83 % 17.12 C
167 05-06-2021 13:50:00 20.2 C 82 % 17.03 C
168 05-06-2021 13:55:00 20.3 C 83 % 17.32 C
169 05-06-2021 14:00:00 20.5 C 82 % 17.32 C
170 05-06-2021 14:05:00 20.7 C 81 % 17.32 C
171 05-06-2021 14:10:00 20.7 C 80 % 17.13 C
172 05-06-2021 14:15:00 20.8 C 80 % 17.22 C
173 05-06-2021 14:20:00 20.9 C 81 % 17.52 C
174 05-06-2021 14:25:00 20.9 C 79 % 17.12 C
175 05-06-2021 14:30:00 20.9 C 80 % 17.32 C
Sensor: Nr:Datum:Temp:Feuchte:Taupunkt:
Aussen-T/F 176 05-06-2021 14:35:00 20.9 C 80 % 17.32 C
177 05-06-2021 14:40:00 21.1 C 81 % 17.71 C
178 05-06-2021 14:45:00 21.2 C 80 % 17.61 C
179 05-06-2021 14:50:00 21.3 C 80 % 17.71 C
180 05-06-2021 14:55:00 21.6 C 79 % 17.8 C
181 05-06-2021 15:00:00 21.8 C 77 % 17.59 C
182 05-06-2021 15:05:00 22 C 78 % 17.99 C
183 05-06-2021 15:10:00 22.2 C 78 % 18.18 C
184 05-06-2021 15:15:00 22.2 C 77 % 17.98 C
185 05-06-2021 15:20:00 22.3 C 77 % 18.07 C
186 05-06-2021 15:25:00 22.3 C 77 % 18.07 C
187 05-06-2021 15:30:00 22.4 C 76 % 17.96 C
188 05-06-2021 15:35:00 22.5 C 75 % 17.85 C
189 05-06-2021 15:40:00 22.4 C 76 % 17.96 C
190 05-06-2021 15:45:00 22.4 C 78 % 18.37 C
191 05-06-2021 15:50:00 22.4 C 76 % 17.96 C
192 05-06-2021 15:55:00 22.5 C 79 % 18.67 C
193 05-06-2021 16:00:00 22.4 C 76 % 17.96 C
194 05-06-2021 16:05:00 22.4 C 78 % 18.37 C
195 05-06-2021 16:10:00 22.4 C 76 % 17.96 C
196 05-06-2021 16:15:00 22.6 C 75 % 17.94 C
197 05-06-2021 16:20:00 22.6 C 73 % 17.51 C
198 05-06-2021 16:25:00 22.7 C 74 % 17.83 C
199 05-06-2021 16:30:00 22.7 C 77 % 18.46 C
200 05-06-2021 16:35:00 22.7 C 79 % 18.87 C
Sensor: Nr:Datum:Temp:Feuchte:Taupunkt:
Aussen-T/F 201 05-06-2021 16:40:00 22.4 C 78 % 18.37 C
202 05-06-2021 16:45:00 22.3 C 76 % 17.86 C
203 05-06-2021 16:50:00 22.1 C 77 % 17.88 C
204 05-06-2021 16:55:00 21.9 C 76 % 17.48 C
205 05-06-2021 17:00:00 21.8 C 77 % 17.59 C
206 05-06-2021 17:05:00 21.6 C 79 % 17.8 C
207 05-06-2021 17:10:00 21.4 C 80 % 17.81 C
208 05-06-2021 17:15:00 21.2 C 80 % 17.61 C
209 05-06-2021 17:20:00 20.9 C 82 % 17.71 C
210 05-06-2021 17:25:00 20.7 C 84 % 17.9 C
211 05-06-2021 17:30:00 20.4 C 85 % 17.79 C
212 05-06-2021 17:35:00 20.1 C 87 % 17.87 C
213 05-06-2021 17:40:00 19.9 C 88 % 17.85 C
214 05-06-2021 17:45:00 19.8 C 89 % 17.93 C
215 05-06-2021 17:50:00 19.7 C 90 % 18.01 C
216 05-06-2021 17:55:00 19.6 C 90 % 17.91 C
217 05-06-2021 18:00:00 19.4 C 90 % 17.72 C
218 05-06-2021 18:05:00 19.3 C 91 % 17.79 C
219 05-06-2021 18:10:00 19.1 C 90 % 17.42 C
220 05-06-2021 18:15:00 19 C 91 % 17.5 C
221 05-06-2021 18:20:00 18.8 C 90 % 17.12 C
222 05-06-2021 18:25:00 18.8 C 91 % 17.3 C
223 05-06-2021 18:30:00 18.7 C 91 % 17.2 C
224 05-06-2021 18:35:00 18.6 C 91 % 17.1 C
225 05-06-2021 18:40:00 18.4 C 90 % 16.73 C
Sensor: Nr:Datum:Temp:Feuchte:Taupunkt:
Aussen-T/F 226 05-06-2021 18:45:00 18.3 C 90 % 16.63 C
227 05-06-2021 18:50:00 18.3 C 91 % 16.81 C
228 05-06-2021 18:55:00 18.2 C 91 % 16.71 C
229 05-06-2021 19:00:00 18.2 C 91 % 16.71 C
230 05-06-2021 19:05:00 18.1 C 91 % 16.61 C
231 05-06-2021 19:10:00 18.1 C 91 % 16.61 C
232 05-06-2021 19:15:00 18 C 90 % 16.34 C
233 05-06-2021 19:20:00 17.9 C 91 % 16.41 C
234 05-06-2021 19:25:00 17.8 C 91 % 16.31 C
235 05-06-2021 19:30:00 17.8 C 91 % 16.31 C
236 05-06-2021 19:35:00 17.7 C 91 % 16.21 C
237 05-06-2021 19:40:00 17.6 C 91 % 16.11 C
238 05-06-2021 19:45:00 17.5 C 91 % 16.01 C
239 05-06-2021 19:50:00 17.4 C 91 % 15.92 C
240 05-06-2021 19:55:00 17.4 C 91 % 15.92 C
241 05-06-2021 20:00:00 17.3 C 91 % 15.82 C
242 05-06-2021 20:05:00 17.2 C 91 % 15.72 C
243 05-06-2021 20:10:00 17.2 C 92 % 15.89 C
244 05-06-2021 20:15:00 17.1 C 92 % 15.79 C
245 05-06-2021 20:20:00 17.1 C 92 % 15.79 C
246 05-06-2021 20:25:00 16.9 C 92 % 15.59 C
247 05-06-2021 20:30:00 16.9 C 92 % 15.59 C
248 05-06-2021 20:35:00 16.8 C 92 % 15.49 C
249 05-06-2021 20:40:00 16.7 C 92 % 15.39 C
250 05-06-2021 20:45:00 16.7 C 92 % 15.39 C
Sensor: Nr:Datum:Temp:Feuchte:Taupunkt:
Aussen-T/F 251 05-06-2021 20:50:00 16.7 C 93 % 15.56 C
252 05-06-2021 20:55:00 16.7 C 93 % 15.56 C
253 05-06-2021 21:00:00 16.6 C 93 % 15.46 C
254 05-06-2021 21:05:00 16.6 C 93 % 15.46 C
255 05-06-2021 21:10:00 16.5 C 93 % 15.36 C
256 05-06-2021 21:15:00 16.5 C 93 % 15.36 C
257 05-06-2021 21:20:00 16.4 C 93 % 15.27 C
258 05-06-2021 21:25:00 16.4 C 93 % 15.27 C
259 05-06-2021 21:30:00 16.4 C 93 % 15.27 C
260 05-06-2021 21:35:00 16.4 C 93 % 15.27 C
261 05-06-2021 21:40:00 16.4 C 93 % 15.27 C
262 05-06-2021 21:45:00 16.4 C 93 % 15.27 C
263 05-06-2021 21:50:00 16.4 C 93 % 15.27 C
264 05-06-2021 21:55:00 16.3 C 93 % 15.17 C
265 05-06-2021 22:00:00 16.3 C 93 % 15.17 C
266 05-06-2021 22:05:00 16.3 C 93 % 15.17 C
267 05-06-2021 22:10:00 16.3 C 93 % 15.17 C
268 05-06-2021 22:15:00 16.3 C 93 % 15.17 C
269 05-06-2021 22:20:00 16.3 C 94 % 15.33 C
270 05-06-2021 22:25:00 16.3 C 94 % 15.33 C
271 05-06-2021 22:30:00 16.3 C 94 % 15.33 C
272 05-06-2021 22:35:00 16.3 C 94 % 15.33 C
273 05-06-2021 22:40:00 16.3 C 94 % 15.33 C
274 05-06-2021 22:45:00 16.3 C 94 % 15.33 C
275 05-06-2021 22:50:00 16.2 C 94 % 15.23 C
Sensor: Nr:Datum:Temp:Feuchte:Taupunkt:
Aussen-T/F 276 05-06-2021 22:55:00 16.2 C 94 % 15.23 C
277 05-06-2021 23:00:00 16.2 C 94 % 15.23 C
278 05-06-2021 23:05:00 16.2 C 94 % 15.23 C
279 05-06-2021 23:10:00 16.2 C 94 % 15.23 C
280 05-06-2021 23:15:00 16.2 C 94 % 15.23 C
281 05-06-2021 23:20:00 16.1 C 94 % 15.13 C
282 05-06-2021 23:25:00 16.1 C 94 % 15.13 C
283 05-06-2021 23:30:00 16.1 C 94 % 15.13 C
284 05-06-2021 23:35:00 16.1 C 94 % 15.13 C
285 05-06-2021 23:40:00 16.1 C 94 % 15.13 C
286 05-06-2021 23:45:00 16.1 C 94 % 15.13 C
287 05-06-2021 23:50:00 16.1 C 94 % 15.13 C
288 05-06-2021 23:55:00 16.1 C 94 % 15.13 C
289 06-06-2021 00:00:00 16 C 94 % 15.03 C
290 06-06-2021 00:05:00 16 C 94 % 15.03 C
291 06-06-2021 00:10:00 16 C 94 % 15.03 C
292 06-06-2021 00:15:00 16 C 94 % 15.03 C
293 06-06-2021 00:20:00 16 C 94 % 15.03 C
294 06-06-2021 00:25:00 16 C 94 % 15.03 C
295 06-06-2021 00:30:00 16 C 94 % 15.03 C
296 06-06-2021 00:35:00 15.9 C 94 % 14.94 C
297 06-06-2021 00:40:00 16 C 94 % 15.03 C
298 06-06-2021 00:45:00 16 C 94 % 15.03 C
299 06-06-2021 00:50:00 15.9 C 94 % 14.94 C
300 06-06-2021 00:55:00 15.9 C 93 % 14.77 C
Sensor: Nr:Datum:Temp:Feuchte:Taupunkt:
Aussen-T/F 301 06-06-2021 01:00:00 15.9 C 93 % 14.77 C
302 06-06-2021 01:05:00 15.9 C 93 % 14.77 C
303 06-06-2021 01:10:00 15.9 C 94 % 14.94 C
304 06-06-2021 01:15:00 15.9 C 94 % 14.94 C
305 06-06-2021 01:20:00 15.9 C 94 % 14.94 C
306 06-06-2021 01:25:00 15.9 C 93 % 14.77 C
307 06-06-2021 01:30:00 15.9 C 93 % 14.77 C
308 06-06-2021 01:35:00 15.9 C 93 % 14.77 C
309 06-06-2021 01:40:00 15.8 C 93 % 14.67 C
310 06-06-2021 01:45:00 15.8 C 93 % 14.67 C
311 06-06-2021 01:50:00 15.8 C 93 % 14.67 C
312 06-06-2021 01:55:00 15.8 C 92 % 14.5 C
313 06-06-2021 02:00:00 15.8 C 92 % 14.5 C
314 06-06-2021 02:05:00 15.8 C 92 % 14.5 C
315 06-06-2021 02:10:00 15.8 C 92 % 14.5 C
316 06-06-2021 02:15:00 15.8 C 92 % 14.5 C
317 06-06-2021 02:20:00 15.8 C 92 % 14.5 C
318 06-06-2021 02:25:00 15.8 C 91 % 14.33 C
319 06-06-2021 02:30:00 15.8 C 91 % 14.33 C
320 06-06-2021 02:35:00 15.8 C 91 % 14.33 C
321 06-06-2021 02:40:00 15.8 C 91 % 14.33 C
322 06-06-2021 02:45:00 15.8 C 91 % 14.33 C
323 06-06-2021 02:50:00 15.7 C 91 % 14.24 C
324 06-06-2021 02:55:00 15.7 C 91 % 14.24 C
325 06-06-2021 03:00:00 15.7 C 91 % 14.24 C
Sensor: Nr:Datum:Temp:Feuchte:Taupunkt:
Aussen-T/F 326 06-06-2021 03:05:00 15.7 C 91 % 14.24 C
327 06-06-2021 03:10:00 15.6 C 91 % 14.14 C
328 06-06-2021 03:15:00 15.6 C 91 % 14.14 C
329 06-06-2021 03:20:00 15.6 C 91 % 14.14 C
330 06-06-2021 03:25:00 15.5 C 91 % 14.04 C
331 06-06-2021 03:30:00 15.4 C 91 % 13.94 C
332 06-06-2021 03:35:00 15.4 C 91 % 13.94 C
333 06-06-2021 03:40:00 15.4 C 91 % 13.94 C
334 06-06-2021 03:45:00 15.4 C 91 % 13.94 C
335 06-06-2021 03:50:00 15.3 C 91 % 13.84 C
336 06-06-2021 03:55:00 15.3 C 91 % 13.84 C
337 06-06-2021 04:00:00 15.3 C 91 % 13.84 C
338 06-06-2021 04:05:00 15.3 C 91 % 13.84 C
339 06-06-2021 04:10:00 15.3 C 91 % 13.84 C
340 06-06-2021 04:15:00 15.3 C 91 % 13.84 C
341 06-06-2021 04:20:00 15.3 C 91 % 13.84 C
342 06-06-2021 04:25:00 15.2 C 91 % 13.74 C
343 06-06-2021 04:30:00 15.2 C 91 % 13.74 C
344 06-06-2021 04:35:00 15.2 C 91 % 13.74 C
345 06-06-2021 04:40:00 15.2 C 91 % 13.74 C
346 06-06-2021 04:45:00 15.2 C 91 % 13.74 C
347 06-06-2021 04:50:00 15.2 C 92 % 13.91 C
348 06-06-2021 04:55:00 15.1 C 92 % 13.81 C
349 06-06-2021 05:00:00 15.1 C 92 % 13.81 C
350 06-06-2021 05:05:00 15 C 92 % 13.71 C
Sensor: Nr:Datum:Temp:Feuchte:Taupunkt:
Aussen-T/F 351 06-06-2021 05:10:00 15 C 92 % 13.71 C
352 06-06-2021 05:15:00 14.9 C 92 % 13.61 C
353 06-06-2021 05:20:00 14.9 C 92 % 13.61 C
354 06-06-2021 05:25:00 14.9 C 92 % 13.61 C
355 06-06-2021 05:30:00 14.9 C 92 % 13.61 C
356 06-06-2021 05:35:00 14.8 C 92 % 13.51 C
357 06-06-2021 05:40:00 14.8 C 93 % 13.68 C
358 06-06-2021 05:45:00 14.7 C 93 % 13.58 C
359 06-06-2021 05:50:00 14.7 C 93 % 13.58 C
360 06-06-2021 05:55:00 14.7 C 93 % 13.58 C
361 06-06-2021 06:00:00 14.6 C 93 % 13.48 C
362 06-06-2021 06:05:00 14.6 C 93 % 13.48 C
363 06-06-2021 06:10:00 14.6 C 93 % 13.48 C
364 06-06-2021 06:15:00 14.5 C 93 % 13.38 C
365 06-06-2021 06:20:00 14.5 C 93 % 13.38 C
366 06-06-2021 06:25:00 14.5 C 93 % 13.38 C
367 06-06-2021 06:30:00 14.5 C 93 % 13.38 C
368 06-06-2021 06:35:00 14.4 C 93 % 13.28 C
369 06-06-2021 06:40:00 14.4 C 94 % 13.45 C
370 06-06-2021 06:45:00 14.4 C 94 % 13.45 C
371 06-06-2021 06:50:00 14.4 C 94 % 13.45 C
372 06-06-2021 06:55:00 14.3 C 93 % 13.18 C
373 06-06-2021 07:00:00 14.3 C 93 % 13.18 C
374 06-06-2021 07:05:00 14.3 C 93 % 13.18 C
375 06-06-2021 07:10:00 14.3 C 93 % 13.18 C
Sensor: Nr:Datum:Temp:Feuchte:Taupunkt:
Aussen-T/F 376 06-06-2021 07:15:00 14.3 C 93 % 13.18 C
377 06-06-2021 07:20:00 14.3 C 93 % 13.18 C
378 06-06-2021 07:25:00 14.3 C 93 % 13.18 C
379 06-06-2021 07:30:00 14.3 C 94 % 13.35 C
380 06-06-2021 07:35:00 14.2 C 93 % 13.08 C
381 06-06-2021 07:40:00 14.2 C 93 % 13.08 C
382 06-06-2021 07:45:00 14.3 C 93 % 13.18 C
383 06-06-2021 07:50:00 14.3 C 94 % 13.35 C
384 06-06-2021 07:55:00 14.3 C 93 % 13.18 C
385 06-06-2021 08:00:00 14.2 C 93 % 13.08 C
386 06-06-2021 08:05:00 14.3 C 93 % 13.18 C
387 06-06-2021 08:10:00 14.3 C 93 % 13.18 C
388 06-06-2021 08:15:00 14.3 C 93 % 13.18 C
389 06-06-2021 08:20:00 14.3 C 93 % 13.18 C
390 06-06-2021 08:25:00 14.3 C 93 % 13.18 C
391 06-06-2021 08:30:00 14.3 C 93 % 13.18 C
392 06-06-2021 08:35:00 14.2 C 93 % 13.08 C
393 06-06-2021 08:40:00 14.3 C 93 % 13.18 C
394 06-06-2021 08:45:00 14.2 C 93 % 13.08 C
395 06-06-2021 08:50:00 14.2 C 93 % 13.08 C
396 06-06-2021 08:55:00 14.3 C 93 % 13.18 C
397 06-06-2021 09:00:00 14.2 C 93 % 13.08 C
398 06-06-2021 09:05:00 14.3 C 93 % 13.18 C
399 06-06-2021 09:10:00 14.3 C 93 % 13.18 C
400 06-06-2021 09:15:00 14.3 C 93 % 13.18 C
Sensor: Nr:Datum:Temp:Feuchte:Taupunkt:
Aussen-T/F 401 06-06-2021 09:20:00 14.3 C 93 % 13.18 C
402 06-06-2021 09:25:00 14.3 C 93 % 13.18 C
403 06-06-2021 09:30:00 14.4 C 93 % 13.28 C
404 06-06-2021 09:35:00 14.4 C 93 % 13.28 C
405 06-06-2021 09:40:00 14.4 C 93 % 13.28 C
406 06-06-2021 09:45:00 14.4 C 93 % 13.28 C
407 06-06-2021 09:50:00 14.5 C 93 % 13.38 C
408 06-06-2021 09:55:00 14.6 C 93 % 13.48 C
409 06-06-2021 10:00:00 14.6 C 93 % 13.48 C
410 06-06-2021 10:05:00 14.6 C 93 % 13.48 C
411 06-06-2021 10:10:00 14.7 C 93 % 13.58 C
412 06-06-2021 10:15:00 14.7 C 93 % 13.58 C
413 06-06-2021 10:20:00 14.7 C 93 % 13.58 C
414 06-06-2021 10:25:00 14.7 C 93 % 13.58 C
415 06-06-2021 10:30:00 14.7 C 92 % 13.41 C
416 06-06-2021 10:35:00 14.7 C 92 % 13.41 C
417 06-06-2021 10:40:00 14.7 C 92 % 13.41 C
418 06-06-2021 10:45:00 14.7 C 93 % 13.58 C
419 06-06-2021 10:50:00 14.7 C 92 % 13.41 C
420 06-06-2021 10:55:00 14.8 C 92 % 13.51 C
421 06-06-2021 11:00:00 14.8 C 93 % 13.68 C
422 06-06-2021 11:05:00 14.8 C 92 % 13.51 C
423 06-06-2021 11:10:00 14.8 C 92 % 13.51 C
424 06-06-2021 11:15:00 14.8 C 92 % 13.51 C
425 06-06-2021 11:20:00 14.8 C 92 % 13.51 C
Sensor: Nr:Datum:Temp:Feuchte:Taupunkt:
Aussen-T/F 426 06-06-2021 11:25:00 14.9 C 92 % 13.61 C
427 06-06-2021 11:30:00 14.9 C 92 % 13.61 C
428 06-06-2021 11:35:00 14.9 C 92 % 13.61 C
429 06-06-2021 11:40:00 14.9 C 92 % 13.61 C
430 06-06-2021 11:45:00 14.9 C 92 % 13.61 C
431 06-06-2021 11:50:00 15 C 92 % 13.71 C
432 06-06-2021 11:55:00 15 C 92 % 13.71 C
433 06-06-2021 12:00:00 15.1 C 92 % 13.81 C
434 06-06-2021 12:05:00 15.1 C 92 % 13.81 C
435 06-06-2021 12:10:00 15.1 C 92 % 13.81 C
436 06-06-2021 12:15:00 15.1 C 92 % 13.81 C
437 06-06-2021 12:20:00 15.1 C 92 % 13.81 C
438 06-06-2021 12:25:00 15.2 C 92 % 13.91 C
439 06-06-2021 12:30:00 15.2 C 92 % 13.91 C
440 06-06-2021 12:35:00 15.2 C 92 % 13.91 C
441 06-06-2021 12:40:00 15.2 C 92 % 13.91 C
442 06-06-2021 12:45:00 15.2 C 92 % 13.91 C
443 06-06-2021 12:50:00 15.3 C 92 % 14.01 C
444 06-06-2021 12:55:00 15.3 C 92 % 14.01 C
445 06-06-2021 13:00:00 15.3 C 92 % 14.01 C
446 06-06-2021 13:05:00 15.3 C 92 % 14.01 C
447 06-06-2021 13:10:00 15.4 C 92 % 14.11 C
448 06-06-2021 13:15:00 15.4 C 92 % 14.11 C
449 06-06-2021 13:20:00 15.5 C 91 % 14.04 C
450 06-06-2021 13:25:00 15.6 C 92 % 14.31 C
Sensor: Nr:Datum:Temp:Feuchte:Taupunkt:
Aussen-T/F 451 06-06-2021 13:30:00 15.7 C 92 % 14.4 C
452 06-06-2021 13:35:00 15.6 C 91 % 14.14 C
453 06-06-2021 13:40:00 15.6 C 91 % 14.14 C
454 06-06-2021 13:45:00 15.7 C 91 % 14.24 C
455 06-06-2021 13:50:00 15.7 C 91 % 14.24 C
456 06-06-2021 13:55:00 15.7 C 91 % 14.24 C
457 06-06-2021 14:00:00 15.7 C 91 % 14.24 C
458 06-06-2021 14:05:00 15.7 C 91 % 14.24 C
459 06-06-2021 14:10:00 15.7 C 91 % 14.24 C
460 06-06-2021 14:15:00 15.7 C 91 % 14.24 C
461 06-06-2021 14:20:00 15.7 C 91 % 14.24 C
462 06-06-2021 14:25:00 15.7 C 91 % 14.24 C
463 06-06-2021 14:30:00 15.7 C 92 % 14.4 C
464 06-06-2021 14:35:00 15.7 C 91 % 14.24 C
465 06-06-2021 14:40:00 15.7 C 91 % 14.24 C
466 06-06-2021 14:45:00 15.7 C 91 % 14.24 C
467 06-06-2021 14:50:00 15.7 C 91 % 14.24 C
468 06-06-2021 14:55:00 15.8 C 91 % 14.33 C
469 06-06-2021 15:00:00 15.8 C 91 % 14.33 C
470 06-06-2021 15:05:00 15.8 C 91 % 14.33 C
471 06-06-2021 15:10:00 15.8 C 91 % 14.33 C
472 06-06-2021 15:15:00 15.9 C 91 % 14.43 C
473 06-06-2021 15:20:00 15.9 C 91 % 14.43 C
474 06-06-2021 15:25:00 15.9 C 91 % 14.43 C
475 06-06-2021 15:30:00 16.1 C 91 % 14.63 C
Sensor: Nr:Datum:Temp:Feuchte:Taupunkt:
Aussen-T/F 476 06-06-2021 15:35:00 16.2 C 90 % 14.56 C
477 06-06-2021 15:40:00 16.3 C 90 % 14.66 C
478 06-06-2021 15:45:00 16.3 C 90 % 14.66 C
479 06-06-2021 15:50:00 16.4 C 89 % 14.58 C
480 06-06-2021 15:55:00 16.5 C 89 % 14.68 C
481 06-06-2021 16:00:00 16.6 C 89 % 14.78 C
482 06-06-2021 16:05:00 16.8 C 88 % 14.8 C
483 06-06-2021 16:10:00 16.9 C 87 % 14.72 C
484 06-06-2021 16:15:00 17.1 C 86 % 14.74 C
485 06-06-2021 16:20:00 17.2 C 86 % 14.84 C
486 06-06-2021 16:25:00 17.3 C 85 % 14.76 C
487 06-06-2021 16:30:00 17.3 C 85 % 14.76 C
488 06-06-2021 16:35:00 17.4 C 85 % 14.85 C
489 06-06-2021 16:40:00 17.4 C 85 % 14.85 C
490 06-06-2021 16:45:00 17.4 C 84 % 14.67 C
491 06-06-2021 16:50:00 17.4 C 85 % 14.85 C
492 06-06-2021 16:55:00 17.4 C 84 % 14.67 C
493 06-06-2021 17:00:00 17.4 C 85 % 14.85 C
494 06-06-2021 17:05:00 17.4 C 85 % 14.85 C
495 06-06-2021 17:10:00 17.4 C 84 % 14.67 C
496 06-06-2021 17:15:00 17.4 C 85 % 14.85 C
497 06-06-2021 17:20:00 17.3 C 84 % 14.57 C
498 06-06-2021 17:25:00 17.3 C 85 % 14.76 C
499 06-06-2021 17:30:00 17.2 C 85 % 14.66 C
500 06-06-2021 17:35:00 17.2 C 85 % 14.66 C
Sensor: Nr:Datum:Temp:Feuchte:Taupunkt:
Aussen-T/F 501 06-06-2021 17:40:00 17.2 C 86 % 14.84 C
502 06-06-2021 17:45:00 17.2 C 86 % 14.84 C
503 06-06-2021 17:50:00 17.3 C 87 % 15.12 C
504 06-06-2021 17:55:00 17.3 C 86 % 14.94 C
505 06-06-2021 18:00:00 17.3 C 86 % 14.94 C
506 06-06-2021 18:05:00 17.4 C 86 % 15.03 C
507 06-06-2021 18:10:00 17.4 C 86 % 15.03 C
508 06-06-2021 18:15:00 17.4 C 86 % 15.03 C
509 06-06-2021 18:20:00 17.3 C 86 % 14.94 C
510 06-06-2021 18:25:00 17.3 C 86 % 14.94 C
511 06-06-2021 18:30:00 17.3 C 86 % 14.94 C
512 06-06-2021 18:35:00 17.2 C 87 % 15.02 C
513 06-06-2021 18:40:00 17.1 C 87 % 14.92 C
514 06-06-2021 18:45:00 17.1 C 87 % 14.92 C
515 06-06-2021 18:50:00 17.1 C 87 % 14.92 C
516 06-06-2021 18:55:00 17.1 C 87 % 14.92 C
517 06-06-2021 19:00:00 17.1 C 87 % 14.92 C
518 06-06-2021 19:05:00 17 C 86 % 14.64 C
519 06-06-2021 19:10:00 17 C 87 % 14.82 C
520 06-06-2021 19:15:00 16.9 C 87 % 14.72 C
521 06-06-2021 19:20:00 16.9 C 87 % 14.72 C
522 06-06-2021 19:25:00 16.9 C 87 % 14.72 C
523 06-06-2021 19:30:00 16.8 C 87 % 14.62 C
524 06-06-2021 19:35:00 16.8 C 87 % 14.62 C
525 06-06-2021 19:40:00 16.8 C 88 % 14.8 C
Sensor: Nr:Datum:Temp:Feuchte:Taupunkt:
Aussen-T/F 526 06-06-2021 19:45:00 16.8 C 88 % 14.8 C
527 06-06-2021 19:50:00 16.8 C 88 % 14.8 C
528 06-06-2021 19:55:00 16.8 C 88 % 14.8 C
529 06-06-2021 20:00:00 16.7 C 88 % 14.7 C
530 06-06-2021 20:05:00 16.7 C 88 % 14.7 C
531 06-06-2021 20:10:00 16.7 C 88 % 14.7 C
532 06-06-2021 20:15:00 16.7 C 88 % 14.7 C
533 06-06-2021 20:20:00 16.7 C 88 % 14.7 C
534 06-06-2021 20:25:00 16.6 C 88 % 14.6 C
535 06-06-2021 20:30:00 16.6 C 88 % 14.6 C
536 06-06-2021 20:35:00 16.6 C 88 % 14.6 C
537 06-06-2021 20:40:00 16.6 C 88 % 14.6 C
538 06-06-2021 20:45:00 16.6 C 89 % 14.78 C
539 06-06-2021 20:50:00 16.6 C 90 % 14.95 C
540 06-06-2021 20:55:00 16.6 C 89 % 14.78 C
541 06-06-2021 21:00:00 16.5 C 89 % 14.68 C
542 06-06-2021 21:05:00 16.4 C 89 % 14.58 C
543 06-06-2021 21:10:00 16.4 C 89 % 14.58 C
544 06-06-2021 21:15:00 16.4 C 90 % 14.76 C
545 06-06-2021 21:20:00 16.4 C 90 % 14.76 C
546 06-06-2021 21:25:00 16.4 C 90 % 14.76 C
547 06-06-2021 21:30:00 16.3 C 90 % 14.66 C
548 06-06-2021 21:35:00 16.3 C 91 % 14.83 C
549 06-06-2021 21:40:00 16.3 C 91 % 14.83 C
550 06-06-2021 21:45:00 16.2 C 91 % 14.73 C
Sensor: Nr:Datum:Temp:Feuchte:Taupunkt:
Aussen-T/F 551 06-06-2021 21:50:00 16.2 C 91 % 14.73 C
552 06-06-2021 21:55:00 16.1 C 91 % 14.63 C
553 06-06-2021 22:00:00 15.9 C 91 % 14.43 C
554 06-06-2021 22:05:00 15.8 C 91 % 14.33 C
555 06-06-2021 22:10:00 15.7 C 91 % 14.24 C
556 06-06-2021 22:15:00 15.6 C 91 % 14.14 C
557 06-06-2021 22:20:00 15.5 C 92 % 14.21 C
558 06-06-2021 22:25:00 15.4 C 92 % 14.11 C
559 06-06-2021 22:30:00 15.4 C 92 % 14.11 C
560 06-06-2021 22:35:00 15.4 C 93 % 14.27 C
561 06-06-2021 22:40:00 15.4 C 93 % 14.27 C
562 06-06-2021 22:45:00 15.4 C 93 % 14.27 C
563 06-06-2021 22:50:00 15.4 C 93 % 14.27 C
564 06-06-2021 22:55:00 15.4 C 93 % 14.27 C
565 06-06-2021 23:00:00 15.4 C 94 % 14.44 C
566 06-06-2021 23:05:00 15.4 C 94 % 14.44 C
567 06-06-2021 23:10:00 15.4 C 94 % 14.44 C
568 06-06-2021 23:15:00 15.4 C 94 % 14.44 C
569 06-06-2021 23:20:00 15.4 C 94 % 14.44 C
570 06-06-2021 23:25:00 15.3 C 94 % 14.34 C
571 06-06-2021 23:30:00 15.3 C 94 % 14.34 C
572 06-06-2021 23:35:00 15.3 C 94 % 14.34 C
573 06-06-2021 23:40:00 15.3 C 94 % 14.34 C
574 06-06-2021 23:45:00 15.3 C 94 % 14.34 C
575 06-06-2021 23:50:00 15.3 C 94 % 14.34 C
Sensor: Nr:Datum:Temp:Feuchte:Taupunkt:
Aussen-T/F 576 06-06-2021 23:55:00 15.3 C 94 % 14.34 C
577 07-06-2021 00:00:00 15.3 C 94 % 14.34 C
578 07-06-2021 00:05:00 15.3 C 94 % 14.34 C
579 07-06-2021 00:10:00 15.3 C 94 % 14.34 C
580 07-06-2021 00:15:00 15.3 C 94 % 14.34 C
581 07-06-2021 00:20:00 15.2 C 94 % 14.24 C
582 07-06-2021 00:25:00 15.3 C 95 % 14.5 C
583 07-06-2021 00:30:00 15.3 C 94 % 14.34 C
584 07-06-2021 00:35:00 15.3 C 95 % 14.5 C
585 07-06-2021 00:40:00 15.3 C 95 % 14.5 C
586 07-06-2021 00:45:00 15.3 C 95 % 14.5 C
587 07-06-2021 00:50:00 15.3 C 95 % 14.5 C
588 07-06-2021 00:55:00 15.3 C 95 % 14.5 C
589 07-06-2021 01:00:00 15.3 C 95 % 14.5 C
590 07-06-2021 01:05:00 15.3 C 95 % 14.5 C
591 07-06-2021 01:10:00 15.3 C 95 % 14.5 C
592 07-06-2021 01:15:00 15.3 C 95 % 14.5 C
593 07-06-2021 01:20:00 15.3 C 95 % 14.5 C
594 07-06-2021 01:25:00 15.4 C 95 % 14.6 C
595 07-06-2021 01:30:00 15.4 C 95 % 14.6 C
596 07-06-2021 01:35:00 15.4 C 95 % 14.6 C
597 07-06-2021 01:40:00 15.4 C 95 % 14.6 C
598 07-06-2021 01:45:00 15.4 C 95 % 14.6 C
599 07-06-2021 01:50:00 15.4 C 95 % 14.6 C
600 07-06-2021 01:55:00 15.4 C 95 % 14.6 C
Sensor: Nr:Datum:Temp:Feuchte:Taupunkt:
Aussen-T/F 601 07-06-2021 02:00:00 15.4 C 95 % 14.6 C
602 07-06-2021 02:05:00 15.4 C 95 % 14.6 C
603 07-06-2021 02:10:00 15.4 C 95 % 14.6 C
604 07-06-2021 02:15:00 15.4 C 95 % 14.6 C
605 07-06-2021 02:20:00 15.4 C 95 % 14.6 C
606 07-06-2021 02:25:00 15.4 C 95 % 14.6 C
607 07-06-2021 02:30:00 15.4 C 95 % 14.6 C
608 07-06-2021 02:35:00 15.4 C 95 % 14.6 C
609 07-06-2021 02:40:00 15.4 C 95 % 14.6 C
610 07-06-2021 02:45:00 15.4 C 95 % 14.6 C
611 07-06-2021 02:50:00 15.4 C 95 % 14.6 C
612 07-06-2021 02:55:00 15.4 C 95 % 14.6 C
613 07-06-2021 03:00:00 15.4 C 95 % 14.6 C
614 07-06-2021 03:05:00 15.4 C 95 % 14.6 C
615 07-06-2021 03:10:00 15.3 C 95 % 14.5 C
616 07-06-2021 03:15:00 15.4 C 95 % 14.6 C
617 07-06-2021 03:20:00 15.3 C 95 % 14.5 C
618 07-06-2021 03:25:00 15.4 C 95 % 14.6 C
619 07-06-2021 03:30:00 15.4 C 95 % 14.6 C
620 07-06-2021 03:35:00 15.4 C 95 % 14.6 C
621 07-06-2021 03:40:00 15.4 C 96 % 14.77 C
622 07-06-2021 03:45:00 15.4 C 96 % 14.77 C
623 07-06-2021 03:50:00 15.4 C 96 % 14.77 C
624 07-06-2021 03:55:00 15.4 C 96 % 14.77 C
625 07-06-2021 04:00:00 15.4 C 96 % 14.77 C
Sensor: Nr:Datum:Temp:Feuchte:Taupunkt:
Aussen-T/F 626 07-06-2021 04:05:00 15.4 C 96 % 14.77 C
627 07-06-2021 04:10:00 15.4 C 96 % 14.77 C
628 07-06-2021 04:15:00 15.4 C 96 % 14.77 C
629 07-06-2021 04:20:00 15.4 C 96 % 14.77 C
630 07-06-2021 04:25:00 15.3 C 95 % 14.5 C
631 07-06-2021 04:30:00 15.3 C 95 % 14.5 C
632 07-06-2021 04:35:00 15.3 C 95 % 14.5 C
633 07-06-2021 04:40:00 15.3 C 95 % 14.5 C
634 07-06-2021 04:45:00 15.3 C 95 % 14.5 C
635 07-06-2021 04:50:00 15.3 C 96 % 14.67 C
636 07-06-2021 04:55:00 15.3 C 96 % 14.67 C
637 07-06-2021 05:00:00 15.3 C 96 % 14.67 C
638 07-06-2021 05:05:00 15.3 C 96 % 14.67 C
639 07-06-2021 05:10:00 15.3 C 96 % 14.67 C
640 07-06-2021 05:15:00 15.3 C 96 % 14.67 C
641 07-06-2021 05:20:00 15.3 C 96 % 14.67 C
642 07-06-2021 05:25:00 15.3 C 96 % 14.67 C
643 07-06-2021 05:30:00 15.3 C 96 % 14.67 C
644 07-06-2021 05:35:00 15.3 C 96 % 14.67 C
645 07-06-2021 05:40:00 15.3 C 96 % 14.67 C
646 07-06-2021 05:45:00 15.3 C 96 % 14.67 C
647 07-06-2021 05:50:00 15.3 C 96 % 14.67 C
648 07-06-2021 05:55:00 15.3 C 96 % 14.67 C
649 07-06-2021 06:00:00 15.3 C 96 % 14.67 C
650 07-06-2021 06:05:00 15.3 C 96 % 14.67 C
Sensor: Nr:Datum:Temp:Feuchte:Taupunkt:
Aussen-T/F 651 07-06-2021 06:10:00 15.3 C 96 % 14.67 C
652 07-06-2021 06:15:00 15.3 C 96 % 14.67 C
653 07-06-2021 06:20:00 15.3 C 96 % 14.67 C
654 07-06-2021 06:25:00 15.4 C 96 % 14.77 C
655 07-06-2021 06:30:00 15.4 C 96 % 14.77 C
656 07-06-2021 06:35:00 15.4 C 96 % 14.77 C
657 07-06-2021 06:40:00 15.4 C 96 % 14.77 C
658 07-06-2021 06:45:00 15.4 C 96 % 14.77 C
659 07-06-2021 06:50:00 15.6 C 96 % 14.96 C
660 07-06-2021 06:55:00 15.6 C 96 % 14.96 C
661 07-06-2021 07:00:00 15.6 C 96 % 14.96 C
662 07-06-2021 07:05:00 15.7 C 96 % 15.06 C
663 07-06-2021 07:10:00 15.8 C 96 % 15.16 C
664 07-06-2021 07:15:00 15.8 C 96 % 15.16 C
665 07-06-2021 07:20:00 15.8 C 96 % 15.16 C
666 07-06-2021 07:25:00 15.9 C 96 % 15.26 C
667 07-06-2021 07:30:00 15.9 C 96 % 15.26 C
668 07-06-2021 07:35:00 15.9 C 96 % 15.26 C
669 07-06-2021 07:40:00 15.9 C 95 % 15.1 C
670 07-06-2021 07:45:00 16.1 C 95 % 15.3 C
671 07-06-2021 07:50:00 16.2 C 96 % 15.56 C
672 07-06-2021 07:55:00 16.2 C 95 % 15.4 C
673 07-06-2021 08:00:00 16.3 C 94 % 15.33 C
674 07-06-2021 08:05:00 16.4 C 95 % 15.6 C
675 07-06-2021 08:10:00 16.4 C 93 % 15.27 C
Sensor: Nr:Datum:Temp:Feuchte:Taupunkt:
Aussen-T/F 676 07-06-2021 08:15:00 16.6 C 93 % 15.46 C
677 07-06-2021 08:20:00 16.6 C 93 % 15.46 C
678 07-06-2021 08:25:00 16.7 C 92 % 15.39 C
679 07-06-2021 08:30:00 16.8 C 90 % 15.15 C
680 07-06-2021 08:35:00 16.9 C 90 % 15.25 C
681 07-06-2021 08:40:00 17.1 C 90 % 15.45 C
682 07-06-2021 08:45:00 17.1 C 89 % 15.27 C
683 07-06-2021 08:50:00 17.2 C 88 % 15.2 C
684 07-06-2021 08:55:00 17.3 C 88 % 15.29 C
685 07-06-2021 09:00:00 17.3 C 88 % 15.29 C
686 07-06-2021 09:05:00 17.3 C 88 % 15.29 C
687 07-06-2021 09:10:00 17.4 C 87 % 15.21 C
688 07-06-2021 09:15:00 17.4 C 87 % 15.21 C
689 07-06-2021 09:20:00 17.5 C 87 % 15.31 C
690 07-06-2021 09:25:00 17.5 C 87 % 15.31 C
691 07-06-2021 09:30:00 17.6 C 87 % 15.41 C
692 07-06-2021 09:35:00 17.6 C 87 % 15.41 C
693 07-06-2021 09:40:00 17.6 C 86 % 15.23 C
694 07-06-2021 09:45:00 17.6 C 86 % 15.23 C
695 07-06-2021 09:50:00 17.7 C 86 % 15.33 C
696 07-06-2021 09:55:00 17.8 C 86 % 15.43 C
697 07-06-2021 10:00:00 17.9 C 86 % 15.53 C
698 07-06-2021 10:05:00 18.1 C 85 % 15.54 C
699 07-06-2021 10:10:00 18.1 C 84 % 15.35 C
700 07-06-2021 10:15:00 18.3 C 84 % 15.55 C
Sensor: Nr:Datum:Temp:Feuchte:Taupunkt:
Aussen-T/F 701 07-06-2021 10:20:00 18.4 C 84 % 15.65 C
702 07-06-2021 10:25:00 18.6 C 83 % 15.66 C
703 07-06-2021 10:30:00 18.6 C 82 % 15.47 C
704 07-06-2021 10:35:00 18.6 C 82 % 15.47 C
705 07-06-2021 10:40:00 18.6 C 83 % 15.66 C
706 07-06-2021 10:45:00 18.5 C 83 % 15.56 C
707 07-06-2021 10:50:00 18.5 C 83 % 15.56 C
708 07-06-2021 10:55:00 18.6 C 82 % 15.47 C
709 07-06-2021 11:00:00 18.6 C 82 % 15.47 C
710 07-06-2021 11:05:00 18.7 C 82 % 15.57 C
711 07-06-2021 11:10:00 18.9 C 83 % 15.95 C
712 07-06-2021 11:15:00 19.2 C 81 % 15.86 C
713 07-06-2021 11:20:00 19.3 C 79 % 15.57 C
714 07-06-2021 11:25:00 19.3 C 80 % 15.76 C
715 07-06-2021 11:30:00 19.3 C 79 % 15.57 C
716 07-06-2021 11:35:00 19.3 C 79 % 15.57 C
717 07-06-2021 11:40:00 19.1 C 79 % 15.37 C
718 07-06-2021 11:45:00 19 C 80 % 15.47 C
719 07-06-2021 11:50:00 18.9 C 80 % 15.38 C
720 07-06-2021 11:55:00 18.9 C 81 % 15.57 C
721 07-06-2021 12:00:00 18.9 C 82 % 15.76 C
722 07-06-2021 12:05:00 18.9 C 82 % 15.76 C
723 07-06-2021 12:10:00 18.9 C 84 % 16.14 C
724 07-06-2021 12:15:00 18.9 C 83 % 15.95 C
725 07-06-2021 12:20:00 18.8 C 84 % 16.04 C
Sensor: Nr:Datum:Temp:Feuchte:Taupunkt:
Aussen-T/F 726 07-06-2021 12:25:00 18.9 C 85 % 16.32 C
727 07-06-2021 12:30:00 18.8 C 85 % 16.23 C
728 07-06-2021 12:35:00 18.8 C 82 % 15.66 C
729 07-06-2021 12:40:00 19 C 81 % 15.67 C
730 07-06-2021 12:45:00 19.2 C 78 % 15.27 C
731 07-06-2021 12:50:00 19.4 C 77 % 15.27 C
732 07-06-2021 12:55:00 19.5 C 77 % 15.36 C
733 07-06-2021 13:00:00 19.6 C 78 % 15.66 C
734 07-06-2021 13:05:00 19.6 C 78 % 15.66 C
735 07-06-2021 13:10:00 19.7 C 78 % 15.76 C
736 07-06-2021 13:15:00 19.8 C 76 % 15.45 C
737 07-06-2021 13:20:00 19.8 C 76 % 15.45 C
738 07-06-2021 13:25:00 19.9 C 76 % 15.54 C
739 07-06-2021 13:30:00 20 C 76 % 15.64 C
740 07-06-2021 13:35:00 20 C 75 % 15.43 C
741 07-06-2021 13:40:00 19.9 C 76 % 15.54 C
742 07-06-2021 13:45:00 19.9 C 75 % 15.34 C
743 07-06-2021 13:50:00 19.9 C 75 % 15.34 C
744 07-06-2021 13:55:00 19.9 C 76 % 15.54 C
745 07-06-2021 14:00:00 19.9 C 76 % 15.54 C
746 07-06-2021 14:05:00 20 C 75 % 15.43 C
747 07-06-2021 14:10:00 20.1 C 75 % 15.53 C
748 07-06-2021 14:15:00 20.2 C 74 % 15.42 C
749 07-06-2021 14:20:00 20.2 C 75 % 15.63 C
750 07-06-2021 14:25:00 20.2 C 73 % 15.21 C
Sensor: Nr:Datum:Temp:Feuchte:Taupunkt:
Aussen-T/F 751 07-06-2021 14:30:00 20.2 C 73 % 15.21 C
752 07-06-2021 14:35:00 20.2 C 74 % 15.42 C
753 07-06-2021 14:40:00 20.1 C 73 % 15.11 C
754 07-06-2021 14:45:00 20.1 C 73 % 15.11 C
755 07-06-2021 14:50:00 20 C 74 % 15.23 C
756 07-06-2021 14:55:00 20 C 74 % 15.23 C
757 07-06-2021 15:00:00 19.9 C 73 % 14.92 C
758 07-06-2021 15:05:00 19.9 C 74 % 15.13 C
759 07-06-2021 15:10:00 19.9 C 74 % 15.13 C
760 07-06-2021 15:15:00 20 C 75 % 15.43 C
761 07-06-2021 15:20:00 20.1 C 76 % 15.74 C
762 07-06-2021 15:25:00 20.2 C 75 % 15.63 C
763 07-06-2021 15:30:00 20.2 C 75 % 15.63 C
764 07-06-2021 15:35:00 20.1 C 74 % 15.32 C
765 07-06-2021 15:40:00 20.1 C 74 % 15.32 C
766 07-06-2021 15:45:00 20 C 75 % 15.43 C
767 07-06-2021 15:50:00 20 C 75 % 15.43 C
768 07-06-2021 15:55:00 20 C 76 % 15.64 C
769 07-06-2021 16:00:00 19.9 C 75 % 15.34 C
770 07-06-2021 16:05:00 20 C 76 % 15.64 C
771 07-06-2021 16:10:00 20.1 C 77 % 15.94 C
772 07-06-2021 16:15:00 20.1 C 77 % 15.94 C
773 07-06-2021 16:20:00 20.2 C 77 % 16.04 C
774 07-06-2021 16:25:00 20.2 C 79 % 16.44 C
775 07-06-2021 16:30:00 20.2 C 82 % 17.03 C
Sensor: Nr:Datum:Temp:Feuchte:Taupunkt:
Aussen-T/F 776 07-06-2021 16:35:00 20.1 C 80 % 16.54 C
777 07-06-2021 16:40:00 19.8 C 84 % 17.02 C
778 07-06-2021 16:45:00 19.7 C 85 % 17.11 C
779 07-06-2021 16:50:00 19.5 C 86 % 17.1 C
780 07-06-2021 16:55:00 19.3 C 87 % 17.08 C
781 07-06-2021 17:00:00 19.2 C 88 % 17.16 C
782 07-06-2021 17:05:00 18.9 C 88 % 16.87 C
783 07-06-2021 17:10:00 18.7 C 88 % 16.67 C
784 07-06-2021 17:15:00 18.5 C 89 % 16.65 C
785 07-06-2021 17:20:00 18.4 C 89 % 16.55 C
786 07-06-2021 17:25:00 18.3 C 90 % 16.63 C
787 07-06-2021 17:30:00 18.3 C 91 % 16.81 C
788 07-06-2021 17:35:00 18.2 C 91 % 16.71 C
789 07-06-2021 17:40:00 18.2 C 91 % 16.71 C
790 07-06-2021 17:45:00 18.1 C 92 % 16.78 C
791 07-06-2021 17:50:00 18.1 C 92 % 16.78 C
792 07-06-2021 17:55:00 18.1 C 92 % 16.78 C
793 07-06-2021 18:00:00 18.2 C 93 % 17.05 C
794 07-06-2021 18:05:00 18.2 C 93 % 17.05 C
795 07-06-2021 18:10:00 18.2 C 93 % 17.05 C
796 07-06-2021 18:15:00 18.3 C 93 % 17.15 C
797 07-06-2021 18:20:00 18.3 C 93 % 17.15 C
798 07-06-2021 18:25:00 18.4 C 94 % 17.42 C
799 07-06-2021 18:30:00 18.5 C 94 % 17.52 C
800 07-06-2021 18:35:00 18.6 C 94 % 17.62 C
Sensor: Nr:Datum:Temp:Feuchte:Taupunkt:
Aussen-T/F 801 07-06-2021 18:40:00 18.6 C 94 % 17.62 C
802 07-06-2021 18:45:00 18.7 C 94 % 17.71 C
803 07-06-2021 18:50:00 18.7 C 94 % 17.71 C
804 07-06-2021 18:55:00 18.7 C 93 % 17.54 C
805 07-06-2021 19:00:00 18.7 C 93 % 17.54 C
806 07-06-2021 19:05:00 18.7 C 93 % 17.54 C
807 07-06-2021 19:10:00 18.7 C 93 % 17.54 C
808 07-06-2021 19:15:00 18.7 C 93 % 17.54 C
809 07-06-2021 19:20:00 18.6 C 93 % 17.45 C
810 07-06-2021 19:25:00 18.6 C 93 % 17.45 C
811 07-06-2021 19:30:00 18.6 C 93 % 17.45 C
812 07-06-2021 19:35:00 18.5 C 93 % 17.35 C
813 07-06-2021 19:40:00 18.5 C 93 % 17.35 C
814 07-06-2021 19:45:00 18.4 C 93 % 17.25 C
815 07-06-2021 19:50:00 18.4 C 93 % 17.25 C
816 07-06-2021 19:55:00 18.3 C 93 % 17.15 C
817 07-06-2021 20:00:00 18.2 C 93 % 17.05 C
818 07-06-2021 20:05:00 18.2 C 93 % 17.05 C
819 07-06-2021 20:10:00 18.1 C 93 % 16.95 C
820 07-06-2021 20:15:00 17.9 C 93 % 16.75 C
821 07-06-2021 20:20:00 17.9 C 93 % 16.75 C
822 07-06-2021 20:25:00 17.8 C 93 % 16.65 C
823 07-06-2021 20:30:00 17.7 C 93 % 16.55 C
824 07-06-2021 20:35:00 17.7 C 93 % 16.55 C
825 07-06-2021 20:40:00 17.6 C 93 % 16.45 C
Sensor: Nr:Datum:Temp:Feuchte:Taupunkt:
Aussen-T/F 826 07-06-2021 20:45:00 17.6 C 93 % 16.45 C
827 07-06-2021 20:50:00 17.5 C 93 % 16.36 C
828 07-06-2021 20:55:00 17.4 C 93 % 16.26 C
829 07-06-2021 21:00:00 17.4 C 93 % 16.26 C
830 07-06-2021 21:05:00 17.4 C 94 % 16.42 C
831 07-06-2021 21:10:00 17.3 C 93 % 16.16 C
832 07-06-2021 21:15:00 17.3 C 93 % 16.16 C
833 07-06-2021 21:20:00 17.2 C 93 % 16.06 C
834 07-06-2021 21:25:00 17.1 C 94 % 16.13 C
835 07-06-2021 21:30:00 17 C 94 % 16.03 C
836 07-06-2021 21:35:00 16.9 C 94 % 15.93 C
837 07-06-2021 21:40:00 16.9 C 94 % 15.93 C
838 07-06-2021 21:45:00 16.8 C 94 % 15.83 C
839 07-06-2021 21:50:00 16.8 C 94 % 15.83 C
840 07-06-2021 21:55:00 16.7 C 94 % 15.73 C
841 07-06-2021 22:00:00 16.7 C 94 % 15.73 C
842 07-06-2021 22:05:00 16.6 C 94 % 15.63 C
843 07-06-2021 22:10:00 16.6 C 94 % 15.63 C
844 07-06-2021 22:15:00 16.5 C 94 % 15.53 C
845 07-06-2021 22:20:00 16.4 C 94 % 15.43 C
846 07-06-2021 22:25:00 16.4 C 94 % 15.43 C
847 07-06-2021 22:30:00 16.4 C 94 % 15.43 C
848 07-06-2021 22:35:00 16.3 C 94 % 15.33 C
849 07-06-2021 22:40:00 16.3 C 94 % 15.33 C
850 07-06-2021 22:45:00 16.3 C 94 % 15.33 C
Sensor: Nr:Datum:Temp:Feuchte:Taupunkt:
Aussen-T/F 851 07-06-2021 22:50:00 16.3 C 94 % 15.33 C
852 07-06-2021 22:55:00 16.3 C 94 % 15.33 C
853 07-06-2021 23:00:00 16.3 C 94 % 15.33 C
854 07-06-2021 23:05:00 16.3 C 94 % 15.33 C
855 07-06-2021 23:10:00 16.2 C 94 % 15.23 C
856 07-06-2021 23:15:00 16.2 C 94 % 15.23 C
857 07-06-2021 23:20:00 16.2 C 94 % 15.23 C
858 07-06-2021 23:25:00 16.2 C 95 % 15.4 C
859 07-06-2021 23:30:00 16.2 C 95 % 15.4 C
860 07-06-2021 23:35:00 16.2 C 95 % 15.4 C
861 07-06-2021 23:40:00 16.2 C 95 % 15.4 C
862 07-06-2021 23:45:00 16.1 C 95 % 15.3 C
863 07-06-2021 23:50:00 16.1 C 95 % 15.3 C
864 07-06-2021 23:55:00 16.2 C 95 % 15.4 C
865 08-06-2021 00:00:00 16.2 C 95 % 15.4 C
866 08-06-2021 00:05:00 16.1 C 95 % 15.3 C
867 08-06-2021 00:10:00 16.2 C 95 % 15.4 C
868 08-06-2021 00:15:00 16.1 C 95 % 15.3 C
869 08-06-2021 00:20:00 16.1 C 95 % 15.3 C
870 08-06-2021 00:25:00 16.1 C 95 % 15.3 C
871 08-06-2021 00:30:00 16.1 C 95 % 15.3 C
872 08-06-2021 00:35:00 16.1 C 95 % 15.3 C
873 08-06-2021 00:40:00 16.1 C 95 % 15.3 C
874 08-06-2021 00:45:00 16.1 C 95 % 15.3 C
875 08-06-2021 00:50:00 16.1 C 95 % 15.3 C
Sensor: Nr:Datum:Temp:Feuchte:Taupunkt:
Aussen-T/F 876 08-06-2021 00:55:00 16.1 C 95 % 15.3 C
877 08-06-2021 01:00:00 16.1 C 95 % 15.3 C
878 08-06-2021 01:05:00 16.1 C 95 % 15.3 C
879 08-06-2021 01:10:00 16.1 C 95 % 15.3 C
880 08-06-2021 01:15:00 16 C 95 % 15.2 C
881 08-06-2021 01:20:00 16 C 95 % 15.2 C
882 08-06-2021 01:25:00 16 C 95 % 15.2 C
883 08-06-2021 01:30:00 16 C 95 % 15.2 C
884 08-06-2021 01:35:00 16 C 95 % 15.2 C
885 08-06-2021 01:40:00 16 C 95 % 15.2 C
886 08-06-2021 01:45:00 16 C 95 % 15.2 C
887 08-06-2021 01:50:00 16 C 95 % 15.2 C
888 08-06-2021 01:55:00 15.9 C 95 % 15.1 C
889 08-06-2021 02:00:00 15.9 C 95 % 15.1 C
890 08-06-2021 02:05:00 15.9 C 95 % 15.1 C
891 08-06-2021 02:10:00 15.9 C 95 % 15.1 C
892 08-06-2021 02:15:00 15.9 C 95 % 15.1 C
893 08-06-2021 02:20:00 15.9 C 95 % 15.1 C
894 08-06-2021 02:25:00 15.9 C 95 % 15.1 C
895 08-06-2021 02:30:00 15.8 C 95 % 15 C
896 08-06-2021 02:35:00 15.8 C 95 % 15 C
897 08-06-2021 02:40:00 15.8 C 95 % 15 C
898 08-06-2021 02:45:00 15.7 C 95 % 14.9 C
899 08-06-2021 02:50:00 15.7 C 95 % 14.9 C
900 08-06-2021 02:55:00 15.7 C 95 % 14.9 C
Sensor: Nr:Datum:Temp:Feuchte:Taupunkt:
Aussen-T/F 901 08-06-2021 03:00:00 15.7 C 95 % 14.9 C
902 08-06-2021 03:05:00 15.7 C 95 % 14.9 C
903 08-06-2021 03:10:00 15.7 C 95 % 14.9 C
904 08-06-2021 03:15:00 15.7 C 95 % 14.9 C
905 08-06-2021 03:20:00 15.7 C 95 % 14.9 C
906 08-06-2021 03:25:00 15.7 C 95 % 14.9 C
907 08-06-2021 03:30:00 15.7 C 95 % 14.9 C
908 08-06-2021 03:35:00 15.7 C 95 % 14.9 C
909 08-06-2021 03:40:00 15.7 C 95 % 14.9 C
910 08-06-2021 03:45:00 15.7 C 95 % 14.9 C
911 08-06-2021 03:50:00 15.6 C 95 % 14.8 C
912 08-06-2021 03:55:00 15.6 C 95 % 14.8 C
913 08-06-2021 04:00:00 15.6 C 95 % 14.8 C
914 08-06-2021 04:05:00 15.6 C 95 % 14.8 C
915 08-06-2021 04:10:00 15.6 C 95 % 14.8 C
916 08-06-2021 04:15:00 15.6 C 95 % 14.8 C
917 08-06-2021 04:20:00 15.6 C 95 % 14.8 C
918 08-06-2021 04:25:00 15.6 C 95 % 14.8 C
919 08-06-2021 04:30:00 15.6 C 95 % 14.8 C
920 08-06-2021 04:35:00 15.6 C 95 % 14.8 C
921 08-06-2021 04:40:00 15.6 C 95 % 14.8 C
922 08-06-2021 04:45:00 15.5 C 95 % 14.7 C
923 08-06-2021 04:50:00 15.5 C 96 % 14.86 C
924 08-06-2021 04:55:00 15.5 C 96 % 14.86 C
925 08-06-2021 05:00:00 15.5 C 96 % 14.86 C
Sensor: Nr:Datum:Temp:Feuchte:Taupunkt:
Aussen-T/F 926 08-06-2021 05:05:00 15.4 C 96 % 14.77 C
927 08-06-2021 05:10:00 15.5 C 96 % 14.86 C
928 08-06-2021 05:15:00 15.4 C 96 % 14.77 C
929 08-06-2021 05:20:00 15.4 C 96 % 14.77 C
930 08-06-2021 05:25:00 15.4 C 96 % 14.77 C
931 08-06-2021 05:30:00 15.4 C 96 % 14.77 C
932 08-06-2021 05:35:00 15.4 C 96 % 14.77 C
933 08-06-2021 05:40:00 15.4 C 96 % 14.77 C
934 08-06-2021 05:45:00 15.4 C 96 % 14.77 C
935 08-06-2021 05:50:00 15.4 C 96 % 14.77 C
936 08-06-2021 05:55:00 15.4 C 96 % 14.77 C
937 08-06-2021 06:00:00 15.4 C 96 % 14.77 C
938 08-06-2021 06:05:00 15.4 C 96 % 14.77 C
939 08-06-2021 06:10:00 15.4 C 96 % 14.77 C
940 08-06-2021 06:15:00 15.4 C 96 % 14.77 C
941 08-06-2021 06:20:00 15.4 C 96 % 14.77 C
942 08-06-2021 06:25:00 15.4 C 96 % 14.77 C
943 08-06-2021 06:30:00 15.5 C 96 % 14.86 C
944 08-06-2021 06:35:00 15.5 C 96 % 14.86 C
945 08-06-2021 06:40:00 15.5 C 96 % 14.86 C
946 08-06-2021 06:45:00 15.6 C 96 % 14.96 C
947 08-06-2021 06:50:00 15.6 C 96 % 14.96 C
948 08-06-2021 06:55:00 15.6 C 96 % 14.96 C
949 08-06-2021 07:00:00 15.7 C 96 % 15.06 C
950 08-06-2021 07:05:00 15.7 C 96 % 15.06 C
Sensor: Nr:Datum:Temp:Feuchte:Taupunkt:
Aussen-T/F 951 08-06-2021 07:10:00 15.8 C 96 % 15.16 C
952 08-06-2021 07:15:00 15.8 C 96 % 15.16 C
953 08-06-2021 07:20:00 15.8 C 96 % 15.16 C
954 08-06-2021 07:25:00 15.9 C 96 % 15.26 C
955 08-06-2021 07:30:00 16 C 96 % 15.36 C
956 08-06-2021 07:35:00 16.1 C 96 % 15.46 C
957 08-06-2021 07:40:00 16.2 C 96 % 15.56 C
958 08-06-2021 07:45:00 16.2 C 96 % 15.56 C
959 08-06-2021 07:50:00 16.2 C 96 % 15.56 C
960 08-06-2021 07:55:00 16.3 C 96 % 15.66 C
961 08-06-2021 08:00:00 16.3 C 96 % 15.66 C
962 08-06-2021 08:05:00 16.3 C 95 % 15.5 C
963 08-06-2021 08:10:00 16.4 C 95 % 15.6 C
964 08-06-2021 08:15:00 16.4 C 95 % 15.6 C
965 08-06-2021 08:20:00 16.5 C 95 % 15.7 C
966 08-06-2021 08:25:00 16.6 C 95 % 15.8 C
967 08-06-2021 08:30:00 16.6 C 95 % 15.8 C
968 08-06-2021 08:35:00 16.7 C 94 % 15.73 C
969 08-06-2021 08:40:00 16.8 C 94 % 15.83 C
970 08-06-2021 08:45:00 16.9 C 93 % 15.76 C
971 08-06-2021 08:50:00 17 C 92 % 15.69 C
972 08-06-2021 08:55:00 17.1 C 92 % 15.79 C
973 08-06-2021 09:00:00 17.2 C 91 % 15.72 C
974 08-06-2021 09:05:00 17.3 C 92 % 15.99 C
975 08-06-2021 09:10:00 17.4 C 90 % 15.74 C
Sensor: Nr:Datum:Temp:Feuchte:Taupunkt:
Aussen-T/F 976 08-06-2021 09:15:00 17.4 C 90 % 15.74 C
977 08-06-2021 09:20:00 17.6 C 91 % 16.11 C
978 08-06-2021 09:25:00 17.7 C 89 % 15.86 C
979 08-06-2021 09:30:00 17.7 C 89 % 15.86 C
980 08-06-2021 09:35:00 17.7 C 89 % 15.86 C
981 08-06-2021 09:40:00 17.8 C 88 % 15.79 C
982 08-06-2021 09:45:00 17.9 C 88 % 15.88 C
983 08-06-2021 09:50:00 18.2 C 88 % 16.18 C
984 08-06-2021 09:55:00 18.2 C 87 % 16 C
985 08-06-2021 10:00:00 18.4 C 88 % 16.38 C
986 08-06-2021 10:05:00 18.4 C 86 % 16.02 C
987 08-06-2021 10:10:00 18.6 C 86 % 16.21 C
988 08-06-2021 10:15:00 18.6 C 86 % 16.21 C
989 08-06-2021 10:20:00 18.7 C 85 % 16.13 C
990 08-06-2021 10:25:00 18.7 C 86 % 16.31 C
991 08-06-2021 10:30:00 18.9 C 85 % 16.32 C
992 08-06-2021 10:35:00 19.1 C 84 % 16.33 C
993 08-06-2021 10:40:00 19.2 C 83 % 16.24 C
994 08-06-2021 10:45:00 19.4 C 81 % 16.06 C
995 08-06-2021 10:50:00 19.5 C 81 % 16.15 C
996 08-06-2021 10:55:00 19.7 C 81 % 16.35 C
997 08-06-2021 11:00:00 19.8 C 80 % 16.25 C
998 08-06-2021 11:05:00 20.1 C 80 % 16.54 C
999 08-06-2021 11:10:00 20.2 C 78 % 16.24 C
1000 08-06-2021 11:15:00 20.3 C 79 % 16.54 C
Sensor: Nr:Datum:Temp:Feuchte:Taupunkt:
Aussen-T/F 1001 08-06-2021 11:20:00 20.4 C 77 % 16.23 C
1002 08-06-2021 11:25:00 20.5 C 76 % 16.12 C
1003 08-06-2021 11:30:00 20.7 C 77 % 16.52 C
1004 08-06-2021 11:35:00 20.7 C 75 % 16.11 C
1005 08-06-2021 11:40:00 20.8 C 75 % 16.21 C
1006 08-06-2021 11:45:00 20.8 C 74 % 16 C
1007 08-06-2021 11:50:00 20.8 C 74 % 16 C
1008 08-06-2021 11:55:00 20.8 C 75 % 16.21 C
1009 08-06-2021 12:00:00 21 C 76 % 16.61 C
1010 08-06-2021 12:05:00 21.1 C 76 % 16.7 C
1011 08-06-2021 12:10:00 21.2 C 72 % 15.95 C
1012 08-06-2021 12:15:00 21.3 C 74 % 16.48 C
1013 08-06-2021 12:20:00 21.4 C 73 % 16.36 C
1014 08-06-2021 12:25:00 21.4 C 75 % 16.79 C
1015 08-06-2021 12:30:00 21.4 C 75 % 16.79 C
1016 08-06-2021 12:35:00 21.5 C 74 % 16.67 C
1017 08-06-2021 12:40:00 21.5 C 73 % 16.46 C
1018 08-06-2021 12:45:00 21.6 C 73 % 16.55 C
1019 08-06-2021 12:50:00 21.6 C 73 % 16.55 C
1020 08-06-2021 12:55:00 21.6 C 73 % 16.55 C
1021 08-06-2021 13:00:00 21.7 C 73 % 16.65 C
1022 08-06-2021 13:05:00 21.7 C 74 % 16.86 C
1023 08-06-2021 13:10:00 21.8 C 73 % 16.75 C
1024 08-06-2021 13:15:00 21.9 C 73 % 16.84 C
1025 08-06-2021 13:20:00 21.9 C 74 % 17.06 C
Sensor: Nr:Datum:Temp:Feuchte:Taupunkt:
Aussen-T/F 1026 08-06-2021 13:25:00 21.9 C 73 % 16.84 C
1027 08-06-2021 13:30:00 21.9 C 72 % 16.62 C
1028 08-06-2021 13:35:00 22 C 73 % 16.94 C
1029 08-06-2021 13:40:00 22.1 C 73 % 17.03 C
1030 08-06-2021 13:45:00 22.1 C 69 % 16.15 C
1031 08-06-2021 13:50:00 22.2 C 72 % 16.91 C
1032 08-06-2021 13:55:00 22.2 C 70 % 16.47 C
1033 08-06-2021 14:00:00 22.2 C 71 % 16.69 C
1034 08-06-2021 14:05:00 22.2 C 70 % 16.47 C
1035 08-06-2021 14:10:00 22 C 71 % 16.5 C
1036 08-06-2021 14:15:00 21.9 C 71 % 16.4 C
1037 08-06-2021 14:20:00 21.8 C 70 % 16.09 C
1038 08-06-2021 14:25:00 21.7 C 71 % 16.21 C
1039 08-06-2021 14:30:00 21.6 C 70 % 15.89 C
1040 08-06-2021 14:35:00 21.6 C 70 % 15.89 C
1041 08-06-2021 14:40:00 21.7 C 70 % 15.99 C
1042 08-06-2021 14:45:00 21.7 C 69 % 15.77 C
1043 08-06-2021 14:50:00 21.8 C 69 % 15.86 C
1044 08-06-2021 14:55:00 21.9 C 68 % 15.73 C
1045 08-06-2021 15:00:00 22.1 C 69 % 16.15 C
1046 08-06-2021 15:05:00 22.2 C 69 % 16.24 C
1047 08-06-2021 15:10:00 22.3 C 69 % 16.34 C
1048 08-06-2021 15:15:00 22.3 C 69 % 16.34 C
1049 08-06-2021 15:20:00 22.4 C 70 % 16.66 C
1050 08-06-2021 15:25:00 22.4 C 69 % 16.43 C
Sensor: Nr:Datum:Temp:Feuchte:Taupunkt:
Aussen-T/F 1051 08-06-2021 15:30:00 22.5 C 70 % 16.76 C
1052 08-06-2021 15:35:00 22.6 C 68 % 16.39 C
1053 08-06-2021 15:40:00 22.6 C 69 % 16.62 C
1054 08-06-2021 15:45:00 22.6 C 68 % 16.39 C
1055 08-06-2021 15:50:00 22.6 C 66 % 15.93 C
1056 08-06-2021 15:55:00 22.5 C 67 % 16.07 C
1057 08-06-2021 16:00:00 22.6 C 68 % 16.39 C
1058 08-06-2021 16:05:00 22.6 C 67 % 16.16 C
1059 08-06-2021 16:10:00 22.6 C 67 % 16.16 C
1060 08-06-2021 16:15:00 22.7 C 68 % 16.49 C
1061 08-06-2021 16:20:00 22.7 C 66 % 16.02 C
1062 08-06-2021 16:25:00 22.8 C 68 % 16.59 C
1063 08-06-2021 16:30:00 22.9 C 66 % 16.21 C
1064 08-06-2021 16:35:00 23 C 65 % 16.07 C
1065 08-06-2021 16:40:00 23 C 65 % 16.07 C
1066 08-06-2021 16:45:00 23 C 68 % 16.78 C
1067 08-06-2021 16:50:00 23.1 C 65 % 16.16 C
1068 08-06-2021 16:55:00 23.1 C 66 % 16.4 C
1069 08-06-2021 17:00:00 23.1 C 63 % 15.67 C
1070 08-06-2021 17:05:00 23.1 C 65 % 16.16 C
1071 08-06-2021 17:10:00 23 C 64 % 15.82 C
1072 08-06-2021 17:15:00 22.9 C 64 % 15.73 C
1073 08-06-2021 17:20:00 22.8 C 64 % 15.64 C
1074 08-06-2021 17:25:00 22.8 C 64 % 15.64 C
1075 08-06-2021 17:30:00 22.8 C 64 % 15.64 C
Sensor: Nr:Datum:Temp:Feuchte:Taupunkt:
Aussen-T/F 1076 08-06-2021 17:35:00 22.9 C 64 % 15.73 C
1077 08-06-2021 17:40:00 23.1 C 66 % 16.4 C
1078 08-06-2021 17:45:00 23.6 C 62 % 15.89 C
1079 08-06-2021 17:50:00 23.9 C 62 % 16.18 C
1080 08-06-2021 17:55:00 23.9 C 64 % 16.68 C
1081 08-06-2021 18:00:00 23.8 C 62 % 16.08 C
1082 08-06-2021 18:05:00 23.7 C 61 % 15.73 C
1083 08-06-2021 18:10:00 23.7 C 61 % 15.73 C
1084 08-06-2021 18:15:00 23.7 C 62 % 15.99 C
1085 08-06-2021 18:20:00 23.4 C 62 % 15.71 C
1086 08-06-2021 18:25:00 23.3 C 63 % 15.86 C
1087 08-06-2021 18:30:00 23.3 C 63 % 15.86 C
1088 08-06-2021 18:35:00 23.2 C 62 % 15.52 C
1089 08-06-2021 18:40:00 23.2 C 61 % 15.26 C
1090 08-06-2021 18:45:00 23.2 C 61 % 15.26 C
1091 08-06-2021 18:50:00 23.5 C 60 % 15.29 C
1092 08-06-2021 18:55:00 23.6 C 62 % 15.89 C
1093 08-06-2021 19:00:00 23.6 C 62 % 15.89 C
1094 08-06-2021 19:05:00 23.4 C 60 % 15.19 C
1095 08-06-2021 19:10:00 23.3 C 62 % 15.61 C
1096 08-06-2021 19:15:00 23.2 C 61 % 15.26 C
1097 08-06-2021 19:20:00 23.1 C 62 % 15.42 C
1098 08-06-2021 19:25:00 23 C 62 % 15.33 C
1099 08-06-2021 19:30:00 22.9 C 63 % 15.48 C
1100 08-06-2021 19:35:00 22.8 C 66 % 16.12 C
Sensor: Nr:Datum:Temp:Feuchte:Taupunkt:
Aussen-T/F 1101 08-06-2021 19:40:00 22.9 C 69 % 16.91 C
1102 08-06-2021 19:45:00 22.8 C 66 % 16.12 C
1103 08-06-2021 19:50:00 22.7 C 64 % 15.54 C
1104 08-06-2021 19:55:00 22.7 C 64 % 15.54 C
1105 08-06-2021 20:00:00 22.7 C 65 % 15.78 C
1106 08-06-2021 20:05:00 22.7 C 65 % 15.78 C
1107 08-06-2021 20:10:00 22.7 C 66 % 16.02 C
1108 08-06-2021 20:15:00 22.8 C 66 % 16.12 C
1109 08-06-2021 20:20:00 22.7 C 64 % 15.54 C
1110 08-06-2021 20:25:00 22.7 C 66 % 16.02 C
1111 08-06-2021 20:30:00 22.7 C 71 % 17.17 C
1112 08-06-2021 20:35:00 22.6 C 68 % 16.39 C
1113 08-06-2021 20:40:00 22.4 C 65 % 15.5 C
1114 08-06-2021 20:45:00 22.3 C 70 % 16.56 C
1115 08-06-2021 20:50:00 22.2 C 73 % 17.13 C
1116 08-06-2021 20:55:00 22 C 74 % 17.15 C
1117 08-06-2021 21:00:00 21.7 C 75 % 17.07 C
1118 08-06-2021 21:05:00 21.2 C 76 % 16.8 C
1119 08-06-2021 21:10:00 20.7 C 71 % 15.25 C
1120 08-06-2021 21:15:00 20.5 C 76 % 16.12 C
1121 08-06-2021 21:20:00 20.3 C 77 % 16.14 C
1122 08-06-2021 21:25:00 20 C 78 % 16.05 C
1123 08-06-2021 21:30:00 19.7 C 79 % 15.96 C
1124 08-06-2021 21:35:00 19.3 C 79 % 15.57 C
1125 08-06-2021 21:40:00 19.1 C 80 % 15.57 C
Sensor: Nr:Datum:Temp:Feuchte:Taupunkt:
Aussen-T/F 1126 08-06-2021 21:45:00 18.8 C 80 % 15.28 C
1127 08-06-2021 21:50:00 18.6 C 81 % 15.28 C
1128 08-06-2021 21:55:00 18.3 C 82 % 15.17 C
1129 08-06-2021 22:00:00 18.1 C 82 % 14.98 C
1130 08-06-2021 22:05:00 17.9 C 83 % 14.97 C
1131 08-06-2021 22:10:00 17.7 C 83 % 14.78 C
1132 08-06-2021 22:15:00 17.6 C 83 % 14.68 C
1133 08-06-2021 22:20:00 17.6 C 83 % 14.68 C
1134 08-06-2021 22:25:00 17.4 C 84 % 14.67 C
1135 08-06-2021 22:30:00 17.4 C 84 % 14.67 C
1136 08-06-2021 22:35:00 17.3 C 85 % 14.76 C
1137 08-06-2021 22:40:00 17.3 C 85 % 14.76 C
1138 08-06-2021 22:45:00 17.2 C 85 % 14.66 C
1139 08-06-2021 22:50:00 17.1 C 86 % 14.74 C
1140 08-06-2021 22:55:00 16.9 C 86 % 14.54 C
1141 08-06-2021 23:00:00 16.8 C 86 % 14.45 C
1142 08-06-2021 23:05:00 16.6 C 87 % 14.43 C
1143 08-06-2021 23:10:00 16.4 C 87 % 14.23 C
1144 08-06-2021 23:15:00 16.3 C 88 % 14.31 C
1145 08-06-2021 23:20:00 16.2 C 88 % 14.21 C
1146 08-06-2021 23:25:00 16.1 C 88 % 14.11 C
1147 08-06-2021 23:30:00 15.9 C 88 % 13.92 C
1148 08-06-2021 23:35:00 15.8 C 89 % 13.99 C
1149 08-06-2021 23:40:00 15.7 C 89 % 13.89 C
1150 08-06-2021 23:45:00 15.6 C 89 % 13.79 C
Sensor: Nr:Datum:Temp:Feuchte:Taupunkt:
Aussen-T/F 1151 08-06-2021 23:50:00 15.6 C 89 % 13.79 C
1152 08-06-2021 23:55:00 15.4 C 90 % 13.77 C
1153 09-06-2021 00:00:00 15.3 C 90 % 13.67 C
1154 09-06-2021 00:05:00 15.3 C 90 % 13.67 C
1155 09-06-2021 00:10:00 15.2 C 90 % 13.57 C
1156 09-06-2021 00:15:00 15.2 C 91 % 13.74 C
1157 09-06-2021 00:20:00 15.1 C 91 % 13.64 C
1158 09-06-2021 00:25:00 15 C 91 % 13.54 C
1159 09-06-2021 00:30:00 14.9 C 91 % 13.44 C
1160 09-06-2021 00:35:00 14.9 C 91 % 13.44 C
1161 09-06-2021 00:40:00 14.8 C 91 % 13.35 C
1162 09-06-2021 00:45:00 14.8 C 91 % 13.35 C
1163 09-06-2021 00:50:00 14.7 C 92 % 13.41 C
1164 09-06-2021 00:55:00 14.7 C 92 % 13.41 C
1165 09-06-2021 01:00:00 14.6 C 92 % 13.32 C
1166 09-06-2021 01:05:00 14.6 C 92 % 13.32 C
1167 09-06-2021 01:10:00 14.5 C 92 % 13.22 C
1168 09-06-2021 01:15:00 14.4 C 92 % 13.12 C
1169 09-06-2021 01:20:00 14.4 C 92 % 13.12 C
1170 09-06-2021 01:25:00 14.3 C 92 % 13.02 C
1171 09-06-2021 01:30:00 14.3 C 93 % 13.18 C
1172 09-06-2021 01:35:00 14.2 C 92 % 12.92 C
1173 09-06-2021 01:40:00 14.2 C 93 % 13.08 C
1174 09-06-2021 01:45:00 14.1 C 93 % 12.99 C
1175 09-06-2021 01:50:00 14.1 C 93 % 12.99 C
Sensor: Nr:Datum:Temp:Feuchte:Taupunkt:
Aussen-T/F 1176 09-06-2021 01:55:00 14 C 93 % 12.89 C
1177 09-06-2021 02:00:00 14 C 93 % 12.89 C
1178 09-06-2021 02:05:00 13.9 C 93 % 12.79 C
1179 09-06-2021 02:10:00 13.9 C 93 % 12.79 C
1180 09-06-2021 02:15:00 13.8 C 93 % 12.69 C
1181 09-06-2021 02:20:00 13.8 C 94 % 12.85 C
1182 09-06-2021 02:25:00 13.8 C 94 % 12.85 C
1183 09-06-2021 02:30:00 13.8 C 94 % 12.85 C
1184 09-06-2021 02:35:00 13.8 C 94 % 12.85 C
1185 09-06-2021 02:40:00 13.8 C 94 % 12.85 C
1186 09-06-2021 02:45:00 13.7 C 94 % 12.75 C
1187 09-06-2021 02:50:00 13.7 C 94 % 12.75 C
1188 09-06-2021 02:55:00 13.7 C 94 % 12.75 C
1189 09-06-2021 03:00:00 13.7 C 94 % 12.75 C
1190 09-06-2021 03:05:00 13.7 C 94 % 12.75 C
1191 09-06-2021 03:10:00 13.8 C 94 % 12.85 C
1192 09-06-2021 03:15:00 13.8 C 95 % 13.01 C
1193 09-06-2021 03:20:00 13.9 C 95 % 13.11 C
1194 09-06-2021 03:25:00 13.9 C 95 % 13.11 C
1195 09-06-2021 03:30:00 14 C 95 % 13.21 C
1196 09-06-2021 03:35:00 14.1 C 95 % 13.31 C
1197 09-06-2021 03:40:00 14.1 C 95 % 13.31 C
1198 09-06-2021 03:45:00 14.2 C 95 % 13.41 C
1199 09-06-2021 03:50:00 14.2 C 95 % 13.41 C
1200 09-06-2021 03:55:00 14.2 C 95 % 13.41 C
Sensor: Nr:Datum:Temp:Feuchte:Taupunkt:
Aussen-T/F 1201 09-06-2021 04:00:00 14.2 C 95 % 13.41 C
1202 09-06-2021 04:05:00 14.1 C 95 % 13.31 C
1203 09-06-2021 04:10:00 14.1 C 95 % 13.31 C
1204 09-06-2021 04:15:00 14.1 C 95 % 13.31 C
1205 09-06-2021 04:20:00 14.1 C 95 % 13.31 C
1206 09-06-2021 04:25:00 14.1 C 95 % 13.31 C
1207 09-06-2021 04:30:00 14.1 C 95 % 13.31 C
1208 09-06-2021 04:35:00 14 C 95 % 13.21 C
1209 09-06-2021 04:40:00 13.9 C 95 % 13.11 C
1210 09-06-2021 04:45:00 13.8 C 95 % 13.01 C
1211 09-06-2021 04:50:00 13.7 C 94 % 12.75 C
1212 09-06-2021 04:55:00 13.6 C 94 % 12.65 C
1213 09-06-2021 05:00:00 13.6 C 94 % 12.65 C
1214 09-06-2021 05:05:00 13.4 C 94 % 12.45 C
1215 09-06-2021 05:10:00 13.4 C 94 % 12.45 C
1216 09-06-2021 05:15:00 13.3 C 94 % 12.36 C
1217 09-06-2021 05:20:00 13.3 C 94 % 12.36 C
1218 09-06-2021 05:25:00 13.3 C 95 % 12.52 C
1219 09-06-2021 05:30:00 13.2 C 95 % 12.42 C
1220 09-06-2021 05:35:00 13.2 C 95 % 12.42 C
1221 09-06-2021 05:40:00 13.2 C 95 % 12.42 C
1222 09-06-2021 05:45:00 13.2 C 95 % 12.42 C
1223 09-06-2021 05:50:00 13.2 C 95 % 12.42 C
1224 09-06-2021 05:55:00 13.2 C 95 % 12.42 C
1225 09-06-2021 06:00:00 13.3 C 95 % 12.52 C
Sensor: Nr:Datum:Temp:Feuchte:Taupunkt:
Aussen-T/F 1226 09-06-2021 06:05:00 13.3 C 95 % 12.52 C
1227 09-06-2021 06:10:00 13.4 C 96 % 12.78 C
1228 09-06-2021 06:15:00 13.4 C 96 % 12.78 C
1229 09-06-2021 06:20:00 13.4 C 95 % 12.62 C
1230 09-06-2021 06:25:00 13.5 C 95 % 12.72 C
1231 09-06-2021 06:30:00 13.5 C 95 % 12.72 C
1232 09-06-2021 06:35:00 13.5 C 95 % 12.72 C
1233 09-06-2021 06:40:00 13.6 C 96 % 12.97 C
1234 09-06-2021 06:45:00 13.6 C 96 % 12.97 C
1235 09-06-2021 06:50:00 13.6 C 95 % 12.81 C
1236 09-06-2021 06:55:00 13.6 C 95 % 12.81 C
1237 09-06-2021 07:00:00 13.6 C 95 % 12.81 C
1238 09-06-2021 07:05:00 13.7 C 96 % 13.07 C
1239 09-06-2021 07:10:00 13.7 C 96 % 13.07 C
1240 09-06-2021 07:15:00 13.8 C 96 % 13.17 C
1241 09-06-2021 07:20:00 13.8 C 96 % 13.17 C
1242 09-06-2021 07:25:00 13.8 C 96 % 13.17 C
1243 09-06-2021 07:30:00 13.9 C 96 % 13.27 C
1244 09-06-2021 07:35:00 14 C 96 % 13.37 C
1245 09-06-2021 07:40:00 14.1 C 96 % 13.47 C
1246 09-06-2021 07:45:00 14.1 C 96 % 13.47 C
1247 09-06-2021 07:50:00 14.2 C 96 % 13.57 C
1248 09-06-2021 07:55:00 14.3 C 96 % 13.67 C
1249 09-06-2021 08:00:00 14.4 C 96 % 13.77 C
1250 09-06-2021 08:05:00 14.5 C 96 % 13.87 C
Sensor: Nr:Datum:Temp:Feuchte:Taupunkt:
Aussen-T/F 1251 09-06-2021 08:10:00 14.6 C 96 % 13.97 C
1252 09-06-2021 08:15:00 14.7 C 96 % 14.07 C
1253 09-06-2021 08:20:00 14.8 C 96 % 14.17 C
1254 09-06-2021 08:25:00 14.9 C 96 % 14.27 C
1255 09-06-2021 08:30:00 14.9 C 96 % 14.27 C
1256 09-06-2021 08:35:00 15 C 96 % 14.37 C
1257 09-06-2021 08:40:00 15.1 C 95 % 14.31 C
1258 09-06-2021 08:45:00 15.2 C 95 % 14.4 C
1259 09-06-2021 08:50:00 15.4 C 94 % 14.44 C
1260 09-06-2021 08:55:00 15.6 C 94 % 14.64 C
1261 09-06-2021 09:00:00 15.8 C 94 % 14.84 C
1262 09-06-2021 09:05:00 16 C 94 % 15.03 C
1263 09-06-2021 09:10:00 16.1 C 93 % 14.97 C
1264 09-06-2021 09:15:00 16.2 C 92 % 14.9 C
1265 09-06-2021 09:20:00 16.4 C 92 % 15.1 C
1266 09-06-2021 09:25:00 16.6 C 92 % 15.3 C
1267 09-06-2021 09:30:00 16.8 C 92 % 15.49 C
1268 09-06-2021 09:35:00 16.9 C 92 % 15.59 C
1269 09-06-2021 09:40:00 16.9 C 92 % 15.59 C
1270 09-06-2021 09:45:00 17.1 C 93 % 15.96 C
1271 09-06-2021 09:50:00 17.2 C 92 % 15.89 C
1272 09-06-2021 09:55:00 17.3 C 93 % 16.16 C
1273 09-06-2021 10:00:00 17.4 C 92 % 16.09 C
1274 09-06-2021 10:05:00 17.5 C 92 % 16.19 C
1275 09-06-2021 10:10:00 17.7 C 92 % 16.38 C
Sensor: Nr:Datum:Temp:Feuchte:Taupunkt:
Aussen-T/F 1276 09-06-2021 10:15:00 17.9 C 92 % 16.58 C
1277 09-06-2021 10:20:00 18.2 C 92 % 16.88 C
1278 09-06-2021 10:25:00 18.4 C 90 % 16.73 C
1279 09-06-2021 10:30:00 18.9 C 89 % 17.05 C
1280 09-06-2021 10:35:00 19.3 C 88 % 17.26 C
1281 09-06-2021 10:40:00 19.8 C 85 % 17.21 C
1282 09-06-2021 10:45:00 20.2 C 84 % 17.41 C
1283 09-06-2021 10:50:00 20.6 C 81 % 17.22 C
1284 09-06-2021 10:55:00 20.8 C 82 % 17.61 C
1285 09-06-2021 11:00:00 20.9 C 77 % 16.72 C
1286 09-06-2021 11:05:00 21.1 C 79 % 17.32 C
1287 09-06-2021 11:10:00 21.2 C 79 % 17.41 C
1288 09-06-2021 11:15:00 21.3 C 75 % 16.69 C
1289 09-06-2021 11:20:00 21.4 C 76 % 16.99 C
1290 09-06-2021 11:25:00 21.6 C 76 % 17.19 C
1291 09-06-2021 11:30:00 21.7 C 73 % 16.65 C
1292 09-06-2021 11:35:00 21.8 C 74 % 16.96 C
1293 09-06-2021 11:40:00 21.9 C 72 % 16.62 C
1294 09-06-2021 11:45:00 22.1 C 70 % 16.37 C
1295 09-06-2021 11:50:00 22.2 C 70 % 16.47 C
1296 09-06-2021 11:55:00 22.2 C 70 % 16.47 C
1297 09-06-2021 12:00:00 22.2 C 70 % 16.47 C
1298 09-06-2021 12:05:00 22.3 C 70 % 16.56 C
1299 09-06-2021 12:10:00 22.3 C 67 % 15.88 C
1300 09-06-2021 12:15:00 22.4 C 68 % 16.2 C
Sensor: Nr:Datum:Temp:Feuchte:Taupunkt:
Aussen-T/F 1301 09-06-2021 12:20:00 22.4 C 68 % 16.2 C
1302 09-06-2021 12:25:00 22.5 C 72 % 17.2 C
1303 09-06-2021 12:30:00 22.6 C 76 % 18.15 C
1304 09-06-2021 12:35:00 22.6 C 70 % 16.85 C
1305 09-06-2021 12:40:00 22.7 C 65 % 15.78 C
1306 09-06-2021 12:45:00 22.9 C 64 % 15.73 C
1307 09-06-2021 12:50:00 23.1 C 64 % 15.92 C
1308 09-06-2021 12:55:00 23.3 C 62 % 15.61 C
1309 09-06-2021 13:00:00 23.3 C 64 % 16.11 C
1310 09-06-2021 13:05:00 23.3 C 64 % 16.11 C
1311 09-06-2021 13:10:00 23.4 C 64 % 16.2 C
1312 09-06-2021 13:15:00 23.5 C 65 % 16.54 C
1313 09-06-2021 13:20:00 23.5 C 63 % 16.05 C
1314 09-06-2021 13:25:00 23.6 C 63 % 16.14 C
1315 09-06-2021 13:30:00 23.6 C 64 % 16.39 C
1316 09-06-2021 13:35:00 23.7 C 64 % 16.49 C
1317 09-06-2021 13:40:00 23.9 C 61 % 15.92 C
1318 09-06-2021 13:45:00 24.1 C 61 % 16.11 C
1319 09-06-2021 13:50:00 24.1 C 63 % 16.62 C
1320 09-06-2021 13:55:00 24.1 C 64 % 16.86 C
1321 09-06-2021 14:00:00 24.2 C 63 % 16.71 C
1322 09-06-2021 14:05:00 24.3 C 60 % 16.04 C
1323 09-06-2021 14:10:00 24.3 C 59 % 15.78 C
1324 09-06-2021 14:15:00 24.4 C 58 % 15.6 C
1325 09-06-2021 14:20:00 24.5 C 61 % 16.49 C
Sensor: Nr:Datum:Temp:Feuchte:Taupunkt:
Aussen-T/F 1326 09-06-2021 14:25:00 24.7 C 59 % 16.15 C
1327 09-06-2021 14:30:00 24.7 C 60 % 16.41 C
1328 09-06-2021 14:35:00 24.7 C 60 % 16.41 C
1329 09-06-2021 14:40:00 24.6 C 58 % 15.79 C
1330 09-06-2021 14:45:00 24.7 C 59 % 16.15 C
1331 09-06-2021 14:50:00 24.8 C 58 % 15.98 C
1332 09-06-2021 14:55:00 24.8 C 58 % 15.98 C
1333 09-06-2021 15:00:00 24.8 C 59 % 16.24 C
1334 09-06-2021 15:05:00 24.9 C 58 % 16.07 C
1335 09-06-2021 15:10:00 25.1 C 57 % 15.98 C
1336 09-06-2021 15:15:00 25.2 C 59 % 16.62 C
1337 09-06-2021 15:20:00 25.3 C 59 % 16.71 C
1338 09-06-2021 15:25:00 25.5 C 57 % 16.36 C
1339 09-06-2021 15:30:00 25.8 C 54 % 15.79 C
1340 09-06-2021 15:35:00 26.1 C 53 % 15.77 C
1341 09-06-2021 15:40:00 26.3 C 55 % 16.54 C
1342 09-06-2021 15:45:00 26.6 C 54 % 16.53 C
1343 09-06-2021 15:50:00 26.9 C 53 % 16.51 C
1344 09-06-2021 15:55:00 26.9 C 50 % 15.6 C
1345 09-06-2021 16:00:00 26.9 C 53 % 16.51 C
1346 09-06-2021 16:05:00 27.2 C 52 % 16.49 C
1347 09-06-2021 16:10:00 27.4 C 50 % 16.06 C
1348 09-06-2021 16:15:00 27.5 C 50 % 16.15 C
1349 09-06-2021 16:20:00 27.6 C 49 % 15.92 C
1350 09-06-2021 16:25:00 27.7 C 49 % 16.01 C
Sensor: Nr:Datum:Temp:Feuchte:Taupunkt:
Aussen-T/F 1351 09-06-2021 16:30:00 27.8 C 47 % 15.45 C
1352 09-06-2021 16:35:00 27.7 C 47 % 15.36 C
1353 09-06-2021 16:40:00 27.8 C 48 % 15.78 C
1354 09-06-2021 16:45:00 27.8 C 46 % 15.12 C
1355 09-06-2021 16:50:00 27.6 C 47 % 15.27 C
1356 09-06-2021 16:55:00 27.7 C 50 % 16.33 C
1357 09-06-2021 17:00:00 27.8 C 47 % 15.45 C
1358 09-06-2021 17:05:00 27.7 C 47 % 15.36 C
1359 09-06-2021 17:10:00 27.7 C 47 % 15.36 C
1360 09-06-2021 17:15:00 27.7 C 48 % 15.69 C
1361 09-06-2021 17:20:00 27.8 C 46 % 15.12 C
1362 09-06-2021 17:25:00 27.9 C 45 % 14.87 C
1363 09-06-2021 17:30:00 28.1 C 49 % 16.38 C
1364 09-06-2021 17:35:00 28.3 C 47 % 15.91 C
1365 09-06-2021 17:40:00 28.5 C 47 % 16.09 C
1366 09-06-2021 17:45:00 28.4 C 46 % 15.66 C
1367 09-06-2021 17:50:00 28.3 C 48 % 16.24 C
1368 09-06-2021 17:55:00 28.1 C 48 % 16.06 C
1369 09-06-2021 18:00:00 28.1 C 48 % 16.06 C
1370 09-06-2021 18:05:00 28.1 C 48 % 16.06 C
1371 09-06-2021 18:10:00 28 C 49 % 16.29 C
1372 09-06-2021 18:15:00 27.8 C 47 % 15.45 C
1373 09-06-2021 18:20:00 27.7 C 48 % 15.69 C
1374 09-06-2021 18:25:00 27.6 C 47 % 15.27 C
1375 09-06-2021 18:30:00 27.5 C 49 % 15.83 C
Sensor: Nr:Datum:Temp:Feuchte:Taupunkt:
Aussen-T/F 1376 09-06-2021 18:35:00 27.7 C 47 % 15.36 C
1377 09-06-2021 18:40:00 27.6 C 47 % 15.27 C
1378 09-06-2021 18:45:00 27.5 C 48 % 15.51 C
1379 09-06-2021 18:50:00 27.4 C 48 % 15.42 C
1380 09-06-2021 18:55:00 27.2 C 47 % 14.91 C
1381 09-06-2021 19:00:00 26.9 C 49 % 15.28 C
1382 09-06-2021 19:05:00 26.9 C 51 % 15.91 C
1383 09-06-2021 19:10:00 26.9 C 49 % 15.28 C
1384 09-06-2021 19:15:00 26.9 C 50 % 15.6 C
1385 09-06-2021 19:20:00 26.8 C 51 % 15.82 C
1386 09-06-2021 19:25:00 26.6 C 51 % 15.63 C
1387 09-06-2021 19:30:00 26.4 C 52 % 15.75 C
1388 09-06-2021 19:35:00 26.2 C 51 % 15.27 C
1389 09-06-2021 19:40:00 26.1 C 53 % 15.77 C
1390 09-06-2021 19:45:00 26 C 54 % 15.97 C
1391 09-06-2021 19:50:00 25.9 C 54 % 15.88 C
1392 09-06-2021 19:55:00 25.8 C 54 % 15.79 C
1393 09-06-2021 20:00:00 25.8 C 55 % 16.07 C
1394 09-06-2021 20:05:00 25.8 C 55 % 16.07 C
1395 09-06-2021 20:10:00 25.6 C 52 % 15.02 C
1396 09-06-2021 20:15:00 25.6 C 55 % 15.89 C
1397 09-06-2021 20:20:00 25.6 C 62 % 17.78 C
1398 09-06-2021 20:25:00 25.4 C 63 % 17.84 C
1399 09-06-2021 20:30:00 25.3 C 63 % 17.75 C
1400 09-06-2021 20:35:00 25.2 C 64 % 17.9 C
Sensor: Nr:Datum:Temp:Feuchte:Taupunkt:
Aussen-T/F 1401 09-06-2021 20:40:00 24.9 C 65 % 17.87 C
1402 09-06-2021 20:45:00 24.6 C 67 % 18.06 C
1403 09-06-2021 20:50:00 24.3 C 68 % 18.01 C
1404 09-06-2021 20:55:00 23.9 C 68 % 17.63 C
1405 09-06-2021 21:00:00 23.5 C 69 % 17.48 C
1406 09-06-2021 21:05:00 23.2 C 70 % 17.42 C
1407 09-06-2021 21:10:00 22.8 C 71 % 17.27 C
1408 09-06-2021 21:15:00 22.4 C 71 % 16.88 C
1409 09-06-2021 21:20:00 22.1 C 71 % 16.6 C
1410 09-06-2021 21:25:00 21.7 C 73 % 16.65 C
1411 09-06-2021 21:30:00 21.3 C 73 % 16.26 C
1412 09-06-2021 21:35:00 21.1 C 74 % 16.29 C
1413 09-06-2021 21:40:00 20.8 C 74 % 16 C
1414 09-06-2021 21:45:00 20.6 C 75 % 16.01 C
1415 09-06-2021 21:50:00 20.3 C 76 % 15.93 C
1416 09-06-2021 21:55:00 20.2 C 75 % 15.63 C
1417 09-06-2021 22:00:00 20.1 C 76 % 15.74 C
1418 09-06-2021 22:05:00 20 C 76 % 15.64 C
1419 09-06-2021 22:10:00 19.8 C 76 % 15.45 C
1420 09-06-2021 22:15:00 19.8 C 77 % 15.65 C
1421 09-06-2021 22:20:00 19.6 C 77 % 15.46 C
1422 09-06-2021 22:25:00 19.6 C 78 % 15.66 C
1423 09-06-2021 22:30:00 19.4 C 80 % 15.86 C
1424 09-06-2021 22:35:00 19.2 C 80 % 15.67 C
1425 09-06-2021 22:40:00 19 C 81 % 15.67 C
Sensor: Nr:Datum:Temp:Feuchte:Taupunkt:
Aussen-T/F 1426 09-06-2021 22:45:00 18.8 C 82 % 15.66 C
1427 09-06-2021 22:50:00 18.7 C 83 % 15.75 C
1428 09-06-2021 22:55:00 18.6 C 83 % 15.66 C
1429 09-06-2021 23:00:00 18.4 C 84 % 15.65 C
1430 09-06-2021 23:05:00 18.3 C 84 % 15.55 C
1431 09-06-2021 23:10:00 18.2 C 85 % 15.64 C
1432 09-06-2021 23:15:00 18 C 85 % 15.44 C
1433 09-06-2021 23:20:00 17.8 C 85 % 15.25 C
1434 09-06-2021 23:25:00 17.7 C 86 % 15.33 C
1435 09-06-2021 23:30:00 17.7 C 86 % 15.33 C
1436 09-06-2021 23:35:00 17.6 C 86 % 15.23 C
1437 09-06-2021 23:40:00 17.4 C 86 % 15.03 C
1438 09-06-2021 23:45:00 17.3 C 86 % 14.94 C
1439 09-06-2021 23:50:00 17.3 C 86 % 14.94 C
1440 09-06-2021 23:55:00 17.2 C 87 % 15.02 C
1441 10-06-2021 00:00:00 17.1 C 87 % 14.92 C
1442 10-06-2021 00:05:00 17 C 87 % 14.82 C
1443 10-06-2021 00:10:00 16.9 C 87 % 14.72 C
1444 10-06-2021 00:15:00 16.9 C 88 % 14.9 C
1445 10-06-2021 00:20:00 16.8 C 88 % 14.8 C
1446 10-06-2021 00:25:00 16.8 C 88 % 14.8 C
1447 10-06-2021 00:30:00 16.7 C 88 % 14.7 C
1448 10-06-2021 00:35:00 16.7 C 88 % 14.7 C
1449 10-06-2021 00:40:00 16.7 C 89 % 14.88 C
1450 10-06-2021 00:45:00 16.6 C 89 % 14.78 C
Sensor: Nr:Datum:Temp:Feuchte:Taupunkt:
Aussen-T/F 1451 10-06-2021 00:50:00 16.5 C 89 % 14.68 C
1452 10-06-2021 00:55:00 16.4 C 89 % 14.58 C
1453 10-06-2021 01:00:00 16.4 C 89 % 14.58 C
1454 10-06-2021 01:05:00 16.3 C 90 % 14.66 C
1455 10-06-2021 01:10:00 16.3 C 90 % 14.66 C
1456 10-06-2021 01:15:00 16.3 C 90 % 14.66 C
1457 10-06-2021 01:20:00 16.2 C 90 % 14.56 C
1458 10-06-2021 01:25:00 16.2 C 90 % 14.56 C
1459 10-06-2021 01:30:00 16.1 C 90 % 14.46 C
1460 10-06-2021 01:35:00 16.1 C 90 % 14.46 C
1461 10-06-2021 01:40:00 16 C 91 % 14.53 C
1462 10-06-2021 01:45:00 16 C 91 % 14.53 C
1463 10-06-2021 01:50:00 15.9 C 91 % 14.43 C
1464 10-06-2021 01:55:00 15.9 C 91 % 14.43 C
1465 10-06-2021 02:00:00 15.8 C 91 % 14.33 C
1466 10-06-2021 02:05:00 15.8 C 91 % 14.33 C
1467 10-06-2021 02:10:00 15.7 C 91 % 14.24 C
1468 10-06-2021 02:15:00 15.6 C 91 % 14.14 C
1469 10-06-2021 02:20:00 15.6 C 91 % 14.14 C
1470 10-06-2021 02:25:00 15.6 C 91 % 14.14 C
1471 10-06-2021 02:30:00 15.5 C 92 % 14.21 C
1472 10-06-2021 02:35:00 15.5 C 92 % 14.21 C
1473 10-06-2021 02:40:00 15.4 C 92 % 14.11 C
1474 10-06-2021 02:45:00 15.4 C 92 % 14.11 C
1475 10-06-2021 02:50:00 15.4 C 92 % 14.11 C
Sensor: Nr:Datum:Temp:Feuchte:Taupunkt:
Aussen-T/F 1476 10-06-2021 02:55:00 15.3 C 92 % 14.01 C
1477 10-06-2021 03:00:00 15.3 C 92 % 14.01 C
1478 10-06-2021 03:05:00 15.2 C 92 % 13.91 C
1479 10-06-2021 03:10:00 15.2 C 92 % 13.91 C
1480 10-06-2021 03:15:00 15.2 C 92 % 13.91 C
1481 10-06-2021 03:20:00 15.1 C 93 % 13.98 C
1482 10-06-2021 03:25:00 15.1 C 93 % 13.98 C
1483 10-06-2021 03:30:00 15 C 92 % 13.71 C
1484 10-06-2021 03:35:00 14.9 C 93 % 13.78 C
1485 10-06-2021 03:40:00 14.8 C 93 % 13.68 C
1486 10-06-2021 03:45:00 14.8 C 93 % 13.68 C
1487 10-06-2021 03:50:00 14.7 C 93 % 13.58 C
1488 10-06-2021 03:55:00 14.7 C 93 % 13.58 C
1489 10-06-2021 04:00:00 14.6 C 93 % 13.48 C
1490 10-06-2021 04:05:00 14.5 C 93 % 13.38 C
1491 10-06-2021 04:10:00 14.4 C 93 % 13.28 C
1492 10-06-2021 04:15:00 14.4 C 93 % 13.28 C
1493 10-06-2021 04:20:00 14.4 C 93 % 13.28 C
1494 10-06-2021 04:25:00 14.3 C 93 % 13.18 C
1495 10-06-2021 04:30:00 14.3 C 93 % 13.18 C
1496 10-06-2021 04:35:00 14.2 C 93 % 13.08 C
1497 10-06-2021 04:40:00 14.2 C 93 % 13.08 C
1498 10-06-2021 04:45:00 14.1 C 94 % 13.15 C
1499 10-06-2021 04:50:00 14.1 C 94 % 13.15 C
1500 10-06-2021 04:55:00 14 C 94 % 13.05 C
Sensor: Nr:Datum:Temp:Feuchte:Taupunkt:
Aussen-T/F 1501 10-06-2021 05:00:00 13.9 C 94 % 12.95 C
1502 10-06-2021 05:05:00 13.9 C 94 % 12.95 C
1503 10-06-2021 05:10:00 13.8 C 94 % 12.85 C
1504 10-06-2021 05:15:00 13.8 C 94 % 12.85 C
1505 10-06-2021 05:20:00 13.8 C 94 % 12.85 C
1506 10-06-2021 05:25:00 13.7 C 94 % 12.75 C
1507 10-06-2021 05:30:00 13.7 C 94 % 12.75 C
1508 10-06-2021 05:35:00 13.6 C 94 % 12.65 C
1509 10-06-2021 05:40:00 13.6 C 94 % 12.65 C
1510 10-06-2021 05:45:00 13.6 C 94 % 12.65 C
1511 10-06-2021 05:50:00 13.6 C 95 % 12.81 C
1512 10-06-2021 05:55:00 13.6 C 95 % 12.81 C
1513 10-06-2021 06:00:00 13.6 C 95 % 12.81 C
1514 10-06-2021 06:05:00 13.7 C 95 % 12.91 C
1515 10-06-2021 06:10:00 13.6 C 95 % 12.81 C
1516 10-06-2021 06:15:00 13.7 C 95 % 12.91 C
1517 10-06-2021 06:20:00 13.7 C 95 % 12.91 C
1518 10-06-2021 06:25:00 13.7 C 95 % 12.91 C
1519 10-06-2021 06:30:00 13.7 C 95 % 12.91 C
1520 10-06-2021 06:35:00 13.8 C 95 % 13.01 C
1521 10-06-2021 06:40:00 13.8 C 95 % 13.01 C
1522 10-06-2021 06:45:00 13.8 C 95 % 13.01 C
1523 10-06-2021 06:50:00 13.8 C 95 % 13.01 C
1524 10-06-2021 06:55:00 13.8 C 95 % 13.01 C
1525 10-06-2021 07:00:00 13.9 C 95 % 13.11 C
Sensor: Nr:Datum:Temp:Feuchte:Taupunkt:
Aussen-T/F 1526 10-06-2021 07:05:00 13.9 C 95 % 13.11 C
1527 10-06-2021 07:10:00 14 C 95 % 13.21 C
1528 10-06-2021 07:15:00 14.1 C 95 % 13.31 C
1529 10-06-2021 07:20:00 14.2 C 95 % 13.41 C
1530 10-06-2021 07:25:00 14.2 C 95 % 13.41 C
1531 10-06-2021 07:30:00 14.3 C 95 % 13.51 C
1532 10-06-2021 07:35:00 14.3 C 95 % 13.51 C
1533 10-06-2021 07:40:00 14.4 C 95 % 13.61 C
1534 10-06-2021 07:45:00 14.6 C 95 % 13.81 C
1535 10-06-2021 07:50:00 14.7 C 95 % 13.91 C
1536 10-06-2021 07:55:00 14.7 C 95 % 13.91 C
1537 10-06-2021 08:00:00 14.8 C 95 % 14.01 C
1538 10-06-2021 08:05:00 15 C 95 % 14.21 C
1539 10-06-2021 08:10:00 15.1 C 95 % 14.31 C
1540 10-06-2021 08:15:00 15.2 C 95 % 14.4 C
1541 10-06-2021 08:20:00 15.3 C 95 % 14.5 C
1542 10-06-2021 08:25:00 15.4 C 94 % 14.44 C
1543 10-06-2021 08:30:00 15.6 C 93 % 14.47 C
1544 10-06-2021 08:35:00 15.8 C 93 % 14.67 C
1545 10-06-2021 08:40:00 16 C 92 % 14.7 C
1546 10-06-2021 08:45:00 16.2 C 92 % 14.9 C
1547 10-06-2021 08:50:00 16.3 C 92 % 15 C
1548 10-06-2021 08:55:00 16.6 C 90 % 14.95 C
1549 10-06-2021 09:00:00 16.8 C 90 % 15.15 C
1550 10-06-2021 09:05:00 16.9 C 89 % 15.08 C
Sensor: Nr:Datum:Temp:Feuchte:Taupunkt:
Aussen-T/F 1551 10-06-2021 09:10:00 17.2 C 87 % 15.02 C
1552 10-06-2021 09:15:00 17.4 C 85 % 14.85 C
1553 10-06-2021 09:20:00 17.7 C 83 % 14.78 C
1554 10-06-2021 09:25:00 17.9 C 80 % 14.4 C
1555 10-06-2021 09:30:00 18.2 C 81 % 14.89 C
1556 10-06-2021 09:35:00 18.4 C 80 % 14.89 C
1557 10-06-2021 09:40:00 18.7 C 80 % 15.18 C
1558 10-06-2021 09:45:00 18.9 C 79 % 15.18 C
1559 10-06-2021 09:50:00 19.1 C 79 % 15.37 C
1560 10-06-2021 09:55:00 19.3 C 82 % 16.15 C
1561 10-06-2021 10:00:00 19.4 C 80 % 15.86 C
1562 10-06-2021 10:05:00 19.6 C 83 % 16.63 C
1563 10-06-2021 10:10:00 19.7 C 83 % 16.73 C
1564 10-06-2021 10:15:00 19.8 C 83 % 16.83 C
1565 10-06-2021 10:20:00 20 C 83 % 17.02 C
1566 10-06-2021 10:25:00 20.3 C 80 % 16.74 C
1567 10-06-2021 10:30:00 20.6 C 77 % 16.43 C
1568 10-06-2021 10:35:00 21.1 C 80 % 17.51 C
1569 10-06-2021 10:40:00 21.5 C 79 % 17.7 C
1570 10-06-2021 10:45:00 21.8 C 75 % 17.17 C
1571 10-06-2021 10:50:00 22.1 C 74 % 17.25 C
1572 10-06-2021 10:55:00 22.3 C 73 % 17.23 C
1573 10-06-2021 11:00:00 22.4 C 72 % 17.1 C
1574 10-06-2021 11:05:00 22.5 C 71 % 16.98 C
1575 10-06-2021 11:10:00 22.6 C 72 % 17.3 C
Sensor: Nr:Datum:Temp:Feuchte:Taupunkt:
Aussen-T/F 1576 10-06-2021 11:15:00 22.7 C 72 % 17.39 C
1577 10-06-2021 11:20:00 22.8 C 69 % 16.82 C
1578 10-06-2021 11:25:00 22.8 C 69 % 16.82 C
1579 10-06-2021 11:30:00 22.7 C 69 % 16.72 C
1580 10-06-2021 11:35:00 22.8 C 70 % 17.04 C
1581 10-06-2021 11:40:00 22.9 C 70 % 17.14 C
1582 10-06-2021 11:45:00 22.9 C 71 % 17.36 C
1583 10-06-2021 11:50:00 23 C 71 % 17.46 C
1584 10-06-2021 11:55:00 23.1 C 67 % 16.64 C
1585 10-06-2021 12:00:00 23.2 C 65 % 16.26 C
1586 10-06-2021 12:05:00 23.2 C 65 % 16.26 C
1587 10-06-2021 12:10:00 23.3 C 64 % 16.11 C
1588 10-06-2021 12:15:00 23.3 C 67 % 16.83 C
1589 10-06-2021 12:20:00 23.3 C 65 % 16.35 C
1590 10-06-2021 12:25:00 23.3 C 64 % 16.11 C
1591 10-06-2021 12:30:00 23.4 C 63 % 15.96 C
1592 10-06-2021 12:35:00 23.5 C 63 % 16.05 C
1593 10-06-2021 12:40:00 23.7 C 62 % 15.99 C
1594 10-06-2021 12:45:00 23.8 C 61 % 15.83 C
1595 10-06-2021 12:50:00 24 C 62 % 16.27 C
1596 10-06-2021 12:55:00 24.1 C 60 % 15.85 C
1597 10-06-2021 13:00:00 24.3 C 59 % 15.78 C
1598 10-06-2021 13:05:00 24.3 C 60 % 16.04 C
1599 10-06-2021 13:10:00 24.3 C 57 % 15.24 C
1600 10-06-2021 13:15:00 24.3 C 55 % 14.68 C
Sensor: Nr:Datum:Temp:Feuchte:Taupunkt:
Aussen-T/F 1601 10-06-2021 13:20:00 24.4 C 54 % 14.49 C
1602 10-06-2021 13:25:00 24.5 C 56 % 15.15 C
1603 10-06-2021 13:30:00 24.5 C 55 % 14.87 C
1604 10-06-2021 13:35:00 24.7 C 53 % 14.48 C
1605 10-06-2021 13:40:00 24.8 C 52 % 14.28 C
1606 10-06-2021 13:45:00 24.8 C 53 % 14.57 C
1607 10-06-2021 13:50:00 24.9 C 54 % 14.95 C
1608 10-06-2021 13:55:00 25.2 C 53 % 14.94 C
1609 10-06-2021 14:00:00 25.4 C 48 % 13.6 C
1610 10-06-2021 14:05:00 25.3 C 46 % 12.85 C
1611 10-06-2021 14:10:00 25.4 C 47 % 13.27 C
1612 10-06-2021 14:15:00 25.4 C 48 % 13.6 C
1613 10-06-2021 14:20:00 25.4 C 48 % 13.6 C
1614 10-06-2021 14:25:00 25.4 C 46 % 12.94 C
1615 10-06-2021 14:30:00 25.4 C 45 % 12.61 C
1616 10-06-2021 14:35:00 25.4 C 44 % 12.27 C
1617 10-06-2021 14:40:00 25.6 C 43 % 12.1 C
1618 10-06-2021 14:45:00 25.9 C 41 % 11.64 C
1619 10-06-2021 14:50:00 26.1 C 40 % 11.45 C
1620 10-06-2021 14:55:00 26.1 C 42 % 12.19 C
1621 10-06-2021 15:00:00 26.1 C 39 % 11.07 C
1622 10-06-2021 15:05:00 26.2 C 42 % 12.28 C
1623 10-06-2021 15:10:00 26.3 C 40 % 11.63 C
1624 10-06-2021 15:15:00 26.3 C 43 % 12.73 C
1625 10-06-2021 15:20:00 26.5 C 40 % 11.81 C
Sensor: Nr:Datum:Temp:Feuchte:Taupunkt:
Aussen-T/F 1626 10-06-2021 15:25:00 26.5 C 41 % 12.18 C
1627 10-06-2021 15:30:00 26.7 C 39 % 11.6 C
1628 10-06-2021 15:35:00 26.8 C 38 % 11.3 C
1629 10-06-2021 15:40:00 27.1 C 38 % 11.56 C
1630 10-06-2021 15:45:00 27.4 C 37 % 11.43 C
1631 10-06-2021 15:50:00 27.7 C 40 % 12.88 C
1632 10-06-2021 15:55:00 27.9 C 40 % 13.05 C
1633 10-06-2021 16:00:00 28.2 C 36 % 11.72 C
1634 10-06-2021 16:05:00 28.3 C 37 % 12.22 C
1635 10-06-2021 16:10:00 28.2 C 37 % 12.13 C
1636 10-06-2021 16:15:00 28.2 C 37 % 12.13 C
1637 10-06-2021 16:20:00 28.3 C 39 % 13.02 C
1638 10-06-2021 16:25:00 28.5 C 38 % 12.8 C
1639 10-06-2021 16:30:00 28.5 C 38 % 12.8 C
1640 10-06-2021 16:35:00 28.6 C 40 % 13.68 C
1641 10-06-2021 16:40:00 28.7 C 39 % 13.38 C
1642 10-06-2021 16:45:00 28.8 C 39 % 13.47 C
1643 10-06-2021 16:50:00 28.8 C 38 % 13.07 C
1644 10-06-2021 16:55:00 28.9 C 40 % 13.95 C
1645 10-06-2021 17:00:00 29.1 C 36 % 12.51 C
1646 10-06-2021 17:05:00 29.2 C 35 % 12.17 C
1647 10-06-2021 17:10:00 29.2 C 36 % 12.6 C
1648 10-06-2021 17:15:00 29.1 C 36 % 12.51 C
1649 10-06-2021 17:20:00 29.1 C 36 % 12.51 C
1650 10-06-2021 17:25:00 28.9 C 35 % 11.91 C
Sensor: Nr:Datum:Temp:Feuchte:Taupunkt:
Aussen-T/F 1651 10-06-2021 17:30:00 28.9 C 36 % 12.33 C
1652 10-06-2021 17:35:00 29.1 C 36 % 12.51 C
1653 10-06-2021 17:40:00 29.1 C 37 % 12.93 C
1654 10-06-2021 17:45:00 28.9 C 38 % 13.16 C
1655 10-06-2021 17:50:00 28.9 C 38 % 13.16 C
1656 10-06-2021 17:55:00 28.8 C 40 % 13.86 C
1657 10-06-2021 18:00:00 28.8 C 38 % 13.07 C
1658 10-06-2021 18:05:00 28.7 C 38 % 12.98 C
1659 10-06-2021 18:10:00 28.4 C 38 % 12.72 C
1660 10-06-2021 18:15:00 28.3 C 40 % 13.41 C
1661 10-06-2021 18:20:00 28.4 C 39 % 13.11 C
1662 10-06-2021 18:25:00 28.4 C 38 % 12.72 C
1663 10-06-2021 18:30:00 28.3 C 40 % 13.41 C
1664 10-06-2021 18:35:00 27.9 C 39 % 12.67 C
1665 10-06-2021 18:40:00 27.6 C 41 % 13.16 C
1666 10-06-2021 18:45:00 27.2 C 43 % 13.54 C
1667 10-06-2021 18:50:00 27.1 C 43 % 13.45 C
1668 10-06-2021 18:55:00 26.9 C 44 % 13.62 C
1669 10-06-2021 19:00:00 26.9 C 43 % 13.27 C
1670 10-06-2021 19:05:00 27 C 44 % 13.71 C
1671 10-06-2021 19:10:00 27 C 42 % 13 C
1672 10-06-2021 19:15:00 26.8 C 42 % 12.82 C
1673 10-06-2021 19:20:00 26.7 C 45 % 13.78 C
1674 10-06-2021 19:25:00 26.6 C 44 % 13.35 C
1675 10-06-2021 19:30:00 26.6 C 44 % 13.35 C
Sensor: Nr:Datum:Temp:Feuchte:Taupunkt:
Aussen-T/F 1676 10-06-2021 19:35:00 26.5 C 44 % 13.26 C
1677 10-06-2021 19:40:00 26.4 C 44 % 13.17 C
1678 10-06-2021 19:45:00 26.4 C 45 % 13.51 C
1679 10-06-2021 19:50:00 26.4 C 45 % 13.51 C
1680 10-06-2021 19:55:00 26.4 C 45 % 13.51 C
1681 10-06-2021 20:00:00 26.1 C 48 % 14.23 C
1682 10-06-2021 20:05:00 25.6 C 48 % 13.78 C
1683 10-06-2021 20:10:00 25.4 C 48 % 13.6 C
1684 10-06-2021 20:15:00 25.4 C 48 % 13.6 C
1685 10-06-2021 20:20:00 25.4 C 48 % 13.6 C
1686 10-06-2021 20:25:00 25.4 C 49 % 13.91 C
1687 10-06-2021 20:30:00 25.4 C 56 % 15.99 C
1688 10-06-2021 20:35:00 25.4 C 57 % 16.26 C
1689 10-06-2021 20:40:00 25.3 C 59 % 16.71 C
1690 10-06-2021 20:45:00 25.2 C 59 % 16.62 C
1691 10-06-2021 20:50:00 24.8 C 59 % 16.24 C
1692 10-06-2021 20:55:00 24.4 C 60 % 16.13 C
1693 10-06-2021 21:00:00 23.9 C 61 % 15.92 C
1694 10-06-2021 21:05:00 23.6 C 62 % 15.89 C
1695 10-06-2021 21:10:00 23.1 C 64 % 15.92 C
1696 10-06-2021 21:15:00 22.7 C 65 % 15.78 C
1697 10-06-2021 21:20:00 22.2 C 65 % 15.31 C
1698 10-06-2021 21:25:00 21.8 C 65 % 14.93 C
1699 10-06-2021 21:30:00 21.5 C 65 % 14.65 C
1700 10-06-2021 21:35:00 21.2 C 65 % 14.36 C
Sensor: Nr:Datum:Temp:Feuchte:Taupunkt:
Aussen-T/F 1701 10-06-2021 21:40:00 21 C 66 % 14.41 C
1702 10-06-2021 21:45:00 20.8 C 67 % 14.45 C
1703 10-06-2021 21:50:00 20.7 C 68 % 14.58 C
1704 10-06-2021 21:55:00 20.5 C 69 % 14.62 C
1705 10-06-2021 22:00:00 20.3 C 71 % 14.87 C
1706 10-06-2021 22:05:00 20.1 C 72 % 14.9 C
1707 10-06-2021 22:10:00 19.9 C 72 % 14.7 C
1708 10-06-2021 22:15:00 19.7 C 73 % 14.73 C
1709 10-06-2021 22:20:00 19.4 C 74 % 14.65 C
1710 10-06-2021 22:25:00 19.3 C 76 % 14.97 C
1711 10-06-2021 22:30:00 19 C 77 % 14.88 C
1712 10-06-2021 22:35:00 18.8 C 78 % 14.88 C
1713 10-06-2021 22:40:00 18.6 C 78 % 14.69 C
1714 10-06-2021 22:45:00 18.4 C 79 % 14.69 C
1715 10-06-2021 22:50:00 18.2 C 79 % 14.5 C
1716 10-06-2021 22:55:00 18.1 C 80 % 14.6 C
1717 10-06-2021 23:00:00 17.9 C 80 % 14.4 C
1718 10-06-2021 23:05:00 17.8 C 81 % 14.5 C
1719 10-06-2021 23:10:00 17.7 C 82 % 14.59 C
1720 10-06-2021 23:15:00 17.5 C 82 % 14.39 C
1721 10-06-2021 23:20:00 17.3 C 82 % 14.2 C
1722 10-06-2021 23:25:00 17.2 C 82 % 14.1 C
1723 10-06-2021 23:30:00 17.1 C 83 % 14.19 C
1724 10-06-2021 23:35:00 16.9 C 82 % 13.81 C
1725 10-06-2021 23:40:00 16.8 C 83 % 13.9 C
Sensor: Nr:Datum:Temp:Feuchte:Taupunkt:
Aussen-T/F 1726 10-06-2021 23:45:00 16.7 C 83 % 13.8 C
1727 10-06-2021 23:50:00 16.7 C 84 % 13.98 C
1728 10-06-2021 23:55:00 16.6 C 84 % 13.89 C
1729 11-06-2021 00:00:00 16.4 C 84 % 13.69 C
1730 11-06-2021 00:05:00 16.4 C 84 % 13.69 C
1731 11-06-2021 00:10:00 16.3 C 84 % 13.59 C
1732 11-06-2021 00:15:00 16.2 C 85 % 13.68 C
1733 11-06-2021 00:20:00 16.1 C 85 % 13.58 C
1734 11-06-2021 00:25:00 16.1 C 85 % 13.58 C
1735 11-06-2021 00:30:00 16.1 C 86 % 13.76 C
1736 11-06-2021 00:35:00 16.1 C 86 % 13.76 C
1737 11-06-2021 00:40:00 16 C 86 % 13.66 C
1738 11-06-2021 00:45:00 16 C 86 % 13.66 C
1739 11-06-2021 00:50:00 15.9 C 86 % 13.56 C
1740 11-06-2021 00:55:00 15.9 C 86 % 13.56 C
1741 11-06-2021 01:00:00 15.9 C 86 % 13.56 C
1742 11-06-2021 01:05:00 15.8 C 86 % 13.46 C
1743 11-06-2021 01:10:00 15.8 C 87 % 13.64 C
1744 11-06-2021 01:15:00 15.8 C 87 % 13.64 C
1745 11-06-2021 01:20:00 15.8 C 87 % 13.64 C
1746 11-06-2021 01:25:00 15.8 C 87 % 13.64 C
1747 11-06-2021 01:30:00 15.7 C 87 % 13.54 C
1748 11-06-2021 01:35:00 15.7 C 87 % 13.54 C
1749 11-06-2021 01:40:00 15.6 C 87 % 13.45 C
1750 11-06-2021 01:45:00 15.5 C 87 % 13.35 C
Sensor: Nr:Datum:Temp:Feuchte:Taupunkt:
Aussen-T/F 1751 11-06-2021 01:50:00 15.4 C 88 % 13.42 C
1752 11-06-2021 01:55:00 15.3 C 88 % 13.33 C
1753 11-06-2021 02:00:00 15.3 C 88 % 13.33 C
1754 11-06-2021 02:05:00 15.2 C 88 % 13.23 C
1755 11-06-2021 02:10:00 15.1 C 88 % 13.13 C
1756 11-06-2021 02:15:00 15 C 89 % 13.2 C
1757 11-06-2021 02:20:00 14.9 C 89 % 13.1 C
1758 11-06-2021 02:25:00 14.8 C 89 % 13.01 C
1759 11-06-2021 02:30:00 14.8 C 89 % 13.01 C
1760 11-06-2021 02:35:00 14.7 C 90 % 13.08 C
1761 11-06-2021 02:40:00 14.6 C 90 % 12.98 C
1762 11-06-2021 02:45:00 14.6 C 90 % 12.98 C
1763 11-06-2021 02:50:00 14.5 C 90 % 12.88 C
1764 11-06-2021 02:55:00 14.4 C 90 % 12.78 C
1765 11-06-2021 03:00:00 14.4 C 90 % 12.78 C
1766 11-06-2021 03:05:00 14.3 C 91 % 12.85 C
1767 11-06-2021 03:10:00 14.3 C 91 % 12.85 C
1768 11-06-2021 03:15:00 14.3 C 91 % 12.85 C
1769 11-06-2021 03:20:00 14.2 C 91 % 12.75 C
1770 11-06-2021 03:25:00 14.2 C 91 % 12.75 C
1771 11-06-2021 03:30:00 14.2 C 92 % 12.92 C
1772 11-06-2021 03:35:00 14.1 C 92 % 12.82 C
1773 11-06-2021 03:40:00 14.1 C 91 % 12.65 C
1774 11-06-2021 03:45:00 14 C 92 % 12.72 C
1775 11-06-2021 03:50:00 13.9 C 92 % 12.62 C
Sensor: Nr:Datum:Temp:Feuchte:Taupunkt:
Aussen-T/F 1776 11-06-2021 03:55:00 13.9 C 92 % 12.62 C
1777 11-06-2021 04:00:00 13.8 C 92 % 12.52 C
1778 11-06-2021 04:05:00 13.8 C 92 % 12.52 C
1779 11-06-2021 04:10:00 13.8 C 92 % 12.52 C
1780 11-06-2021 04:15:00 13.7 C 92 % 12.42 C
1781 11-06-2021 04:20:00 13.7 C 92 % 12.42 C
1782 11-06-2021 04:25:00 13.6 C 92 % 12.33 C
1783 11-06-2021 04:30:00 13.6 C 93 % 12.49 C
1784 11-06-2021 04:35:00 13.6 C 93 % 12.49 C
1785 11-06-2021 04:40:00 13.6 C 93 % 12.49 C
1786 11-06-2021 04:45:00 13.5 C 93 % 12.39 C
1787 11-06-2021 04:50:00 13.5 C 93 % 12.39 C
1788 11-06-2021 04:55:00 13.4 C 93 % 12.29 C
1789 11-06-2021 05:00:00 13.4 C 93 % 12.29 C
1790 11-06-2021 05:05:00 13.4 C 93 % 12.29 C
1791 11-06-2021 05:10:00 13.3 C 93 % 12.19 C
1792 11-06-2021 05:15:00 13.3 C 93 % 12.19 C
1793 11-06-2021 05:20:00 13.3 C 94 % 12.36 C
1794 11-06-2021 05:25:00 13.3 C 93 % 12.19 C
1795 11-06-2021 05:30:00 13.3 C 94 % 12.36 C
1796 11-06-2021 05:35:00 13.3 C 94 % 12.36 C
1797 11-06-2021 05:40:00 13.3 C 94 % 12.36 C
1798 11-06-2021 05:45:00 13.3 C 94 % 12.36 C
1799 11-06-2021 05:50:00 13.3 C 94 % 12.36 C
1800 11-06-2021 05:55:00 13.4 C 94 % 12.45 C
Sensor: Nr:Datum:Temp:Feuchte:Taupunkt:
Aussen-T/F 1801 11-06-2021 06:00:00 13.4 C 94 % 12.45 C
1802 11-06-2021 06:05:00 13.3 C 94 % 12.36 C
1803 11-06-2021 06:10:00 13.3 C 94 % 12.36 C
1804 11-06-2021 06:15:00 13.3 C 94 % 12.36 C
1805 11-06-2021 06:20:00 13.3 C 94 % 12.36 C
1806 11-06-2021 06:25:00 13.4 C 94 % 12.45 C
1807 11-06-2021 06:30:00 13.4 C 94 % 12.45 C
1808 11-06-2021 06:35:00 13.4 C 94 % 12.45 C
1809 11-06-2021 06:40:00 13.4 C 94 % 12.45 C
1810 11-06-2021 06:45:00 13.4 C 94 % 12.45 C
1811 11-06-2021 06:50:00 13.5 C 94 % 12.55 C
1812 11-06-2021 06:55:00 13.5 C 95 % 12.72 C
1813 11-06-2021 07:00:00 13.6 C 95 % 12.81 C
1814 11-06-2021 07:05:00 13.6 C 95 % 12.81 C
1815 11-06-2021 07:10:00 13.7 C 95 % 12.91 C
1816 11-06-2021 07:15:00 13.7 C 95 % 12.91 C
1817 11-06-2021 07:20:00 13.8 C 95 % 13.01 C
1818 11-06-2021 07:25:00 13.8 C 95 % 13.01 C
1819 11-06-2021 07:30:00 13.9 C 95 % 13.11 C
1820 11-06-2021 07:35:00 13.9 C 95 % 13.11 C
1821 11-06-2021 07:40:00 14 C 95 % 13.21 C
1822 11-06-2021 07:45:00 14.1 C 95 % 13.31 C
1823 11-06-2021 07:50:00 14.2 C 95 % 13.41 C
1824 11-06-2021 07:55:00 14.2 C 95 % 13.41 C
1825 11-06-2021 08:00:00 14.3 C 95 % 13.51 C
Sensor: Nr:Datum:Temp:Feuchte:Taupunkt:
Aussen-T/F 1826 11-06-2021 08:05:00 14.4 C 95 % 13.61 C
1827 11-06-2021 08:10:00 14.5 C 95 % 13.71 C
1828 11-06-2021 08:15:00 14.7 C 95 % 13.91 C
1829 11-06-2021 08:20:00 14.8 C 95 % 14.01 C
1830 11-06-2021 08:25:00 14.9 C 95 % 14.11 C
1831 11-06-2021 08:30:00 15 C 95 % 14.21 C
1832 11-06-2021 08:35:00 15.1 C 95 % 14.31 C
1833 11-06-2021 08:40:00 15.2 C 95 % 14.4 C
1834 11-06-2021 08:45:00 15.3 C 95 % 14.5 C
1835 11-06-2021 08:50:00 15.4 C 95 % 14.6 C
1836 11-06-2021 08:55:00 15.6 C 95 % 14.8 C
1837 11-06-2021 09:00:00 15.7 C 95 % 14.9 C
1838 11-06-2021 09:05:00 15.8 C 95 % 15 C
1839 11-06-2021 09:10:00 16 C 95 % 15.2 C
1840 11-06-2021 09:15:00 16.2 C 95 % 15.4 C
1841 11-06-2021 09:20:00 16.3 C 95 % 15.5 C
1842 11-06-2021 09:25:00 16.4 C 95 % 15.6 C
1843 11-06-2021 09:30:00 16.6 C 94 % 15.63 C
1844 11-06-2021 09:35:00 16.8 C 94 % 15.83 C
1845 11-06-2021 09:40:00 17 C 94 % 16.03 C
1846 11-06-2021 09:45:00 17.2 C 93 % 16.06 C
1847 11-06-2021 09:50:00 17.3 C 92 % 15.99 C
1848 11-06-2021 09:55:00 17.5 C 91 % 16.01 C
1849 11-06-2021 10:00:00 17.7 C 90 % 16.04 C
1850 11-06-2021 10:05:00 18.1 C 90 % 16.43 C
Sensor: Nr:Datum:Temp:Feuchte:Taupunkt:
Aussen-T/F 1851 11-06-2021 10:10:00 18.3 C 89 % 16.46 C
1852 11-06-2021 10:15:00 18.7 C 88 % 16.67 C
1853 11-06-2021 10:20:00 19.1 C 87 % 16.89 C
1854 11-06-2021 10:25:00 19.7 C 87 % 17.47 C
1855 11-06-2021 10:30:00 20.2 C 83 % 17.22 C
1856 11-06-2021 10:35:00 20.8 C 79 % 17.02 C
1857 11-06-2021 10:40:00 21.3 C 77 % 17.1 C
1858 11-06-2021 10:45:00 21.9 C 77 % 17.68 C
1859 11-06-2021 10:50:00 22.3 C 76 % 17.86 C
1860 11-06-2021 10:55:00 22.6 C 74 % 17.73 C
1861 11-06-2021 11:00:00 22.7 C 73 % 17.61 C
1862 11-06-2021 11:05:00 22.8 C 72 % 17.49 C
1863 11-06-2021 11:10:00 22.8 C 71 % 17.27 C
1864 11-06-2021 11:15:00 22.9 C 71 % 17.36 C
1865 11-06-2021 11:20:00 22.9 C 72 % 17.58 C
1866 11-06-2021 11:25:00 22.9 C 70 % 17.14 C
1867 11-06-2021 11:30:00 23.1 C 72 % 17.78 C
1868 11-06-2021 11:35:00 23.1 C 70 % 17.33 C
1869 11-06-2021 11:40:00 23.1 C 68 % 16.87 C
1870 11-06-2021 11:45:00 23.2 C 68 % 16.97 C
1871 11-06-2021 11:50:00 23.3 C 66 % 16.59 C
1872 11-06-2021 11:55:00 23.3 C 67 % 16.83 C
1873 11-06-2021 12:00:00 23.4 C 64 % 16.2 C
1874 11-06-2021 12:05:00 23.5 C 62 % 15.8 C
1875 11-06-2021 12:10:00 23.6 C 59 % 15.12 C
Sensor: Nr:Datum:Temp:Feuchte:Taupunkt:
Aussen-T/F 1876 11-06-2021 12:15:00 23.8 C 55 % 14.22 C
1877 11-06-2021 12:20:00 24.1 C 58 % 15.32 C
1878 11-06-2021 12:25:00 24.3 C 58 % 15.51 C
1879 11-06-2021 12:30:00 24.3 C 58 % 15.51 C
1880 11-06-2021 12:35:00 24.3 C 58 % 15.51 C
1881 11-06-2021 12:40:00 24.3 C 60 % 16.04 C
1882 11-06-2021 12:45:00 24.3 C 57 % 15.24 C
1883 11-06-2021 12:50:00 24.4 C 60 % 16.13 C
1884 11-06-2021 12:55:00 24.5 C 58 % 15.7 C
1885 11-06-2021 13:00:00 24.7 C 57 % 15.61 C
1886 11-06-2021 13:05:00 24.7 C 57 % 15.61 C
1887 11-06-2021 13:10:00 24.8 C 56 % 15.43 C
1888 11-06-2021 13:15:00 24.9 C 58 % 16.07 C
1889 11-06-2021 13:20:00 24.9 C 58 % 16.07 C
1890 11-06-2021 13:25:00 24.9 C 57 % 15.8 C
1891 11-06-2021 13:30:00 25 C 58 % 16.16 C
1892 11-06-2021 13:35:00 25.1 C 58 % 16.26 C
1893 11-06-2021 13:40:00 25.1 C 56 % 15.71 C
1894 11-06-2021 13:45:00 25.3 C 56 % 15.89 C
1895 11-06-2021 13:50:00 25.4 C 54 % 15.42 C
1896 11-06-2021 13:55:00 25.6 C 55 % 15.89 C
1897 11-06-2021 14:00:00 25.7 C 56 % 16.26 C
1898 11-06-2021 14:05:00 25.7 C 54 % 15.7 C
1899 11-06-2021 14:10:00 25.8 C 54 % 15.79 C
1900 11-06-2021 14:15:00 26.1 C 54 % 16.07 C
Sensor: Nr:Datum:Temp:Feuchte:Taupunkt:
Aussen-T/F 1901 11-06-2021 14:20:00 26.2 C 53 % 15.87 C
1902 11-06-2021 14:25:00 26.3 C 52 % 15.66 C
1903 11-06-2021 14:30:00 26.4 C 51 % 15.45 C
1904 11-06-2021 14:35:00 26.6 C 51 % 15.63 C
1905 11-06-2021 14:40:00 26.5 C 50 % 15.23 C
1906 11-06-2021 14:45:00 26.6 C 51 % 15.63 C
1907 11-06-2021 14:50:00 26.6 C 52 % 15.94 C
1908 11-06-2021 14:55:00 26.7 C 52 % 16.03 C
1909 11-06-2021 15:00:00 26.9 C 53 % 16.51 C
1910 11-06-2021 15:05:00 27 C 53 % 16.6 C
1911 11-06-2021 15:10:00 27 C 49 % 15.38 C
1912 11-06-2021 15:15:00 27 C 48 % 15.05 C
1913 11-06-2021 15:20:00 27.1 C 49 % 15.47 C
1914 11-06-2021 15:25:00 27.5 C 51 % 16.46 C
1915 11-06-2021 15:30:00 27.9 C 50 % 16.51 C
1916 11-06-2021 15:35:00 28.3 C 50 % 16.88 C
1917 11-06-2021 15:40:00 28.7 C 48 % 16.6 C
1918 11-06-2021 15:45:00 29.2 C 49 % 17.39 C
1919 11-06-2021 15:50:00 29.4 C 45 % 16.23 C
1920 11-06-2021 15:55:00 29.6 C 47 % 17.09 C
1921 11-06-2021 16:00:00 29.7 C 47 % 17.18 C
1922 11-06-2021 16:05:00 29.6 C 41 % 14.95 C
1923 11-06-2021 16:10:00 29.4 C 43 % 15.51 C
1924 11-06-2021 16:15:00 29 C 43 % 15.15 C
1925 11-06-2021 16:20:00 28.7 C 44 % 15.24 C
Sensor: Nr:Datum:Temp:Feuchte:Taupunkt:
Aussen-T/F 1926 11-06-2021 16:25:00 28.6 C 46 % 15.85 C
1927 11-06-2021 16:30:00 28.6 C 45 % 15.5 C
1928 11-06-2021 16:35:00 28.8 C 47 % 16.36 C
1929 11-06-2021 16:40:00 29.1 C 46 % 16.3 C
1930 11-06-2021 16:45:00 29.1 C 46 % 16.3 C
1931 11-06-2021 16:50:00 29 C 48 % 16.88 C
1932 11-06-2021 16:55:00 29.1 C 46 % 16.3 C
1933 11-06-2021 17:00:00 28.9 C 46 % 16.12 C
1934 11-06-2021 17:05:00 28.8 C 46 % 16.03 C
1935 11-06-2021 17:10:00 28.9 C 47 % 16.45 C
1936 11-06-2021 17:15:00 29.1 C 53 % 18.54 C
1937 11-06-2021 17:20:00 29.2 C 46 % 16.39 C
1938 11-06-2021 17:25:00 29.4 C 46 % 16.57 C
1939 11-06-2021 17:30:00 29.6 C 46 % 16.75 C
1940 11-06-2021 17:35:00 29.7 C 46 % 16.84 C
1941 11-06-2021 17:40:00 29.9 C 46 % 17.02 C
1942 11-06-2021 17:45:00 30 C 45 % 16.77 C
1943 11-06-2021 17:50:00 29.8 C 46 % 16.93 C
1944 11-06-2021 17:55:00 30 C 46 % 17.11 C
1945 11-06-2021 18:00:00 29.9 C 46 % 17.02 C
1946 11-06-2021 18:05:00 29.6 C 46 % 16.75 C
1947 11-06-2021 18:10:00 29.4 C 47 % 16.91 C
1948 11-06-2021 18:15:00 29.2 C 48 % 17.06 C
1949 11-06-2021 18:20:00 29.1 C 50 % 17.61 C
1950 11-06-2021 18:25:00 28.8 C 50 % 17.34 C
Sensor: Nr:Datum:Temp:Feuchte:Taupunkt:
Aussen-T/F 1951 11-06-2021 18:30:00 28.6 C 50 % 17.16 C
1952 11-06-2021 18:35:00 28.7 C 51 % 17.56 C
1953 11-06-2021 18:40:00 28.8 C 51 % 17.65 C
1954 11-06-2021 18:45:00 28.8 C 50 % 17.34 C
1955 11-06-2021 18:50:00 28.8 C 51 % 17.65 C
1956 11-06-2021 18:55:00 28.7 C 51 % 17.56 C
1957 11-06-2021 19:00:00 28.6 C 51 % 17.47 C
1958 11-06-2021 19:05:00 28.3 C 53 % 17.8 C
1959 11-06-2021 19:10:00 28.1 C 54 % 17.92 C
1960 11-06-2021 19:15:00 28 C 54 % 17.82 C
1961 11-06-2021 19:20:00 28 C 54 % 17.82 C
1962 11-06-2021 19:25:00 28 C 53 % 17.53 C
1963 11-06-2021 19:30:00 27.8 C 55 % 17.93 C
1964 11-06-2021 19:35:00 27.7 C 55 % 17.84 C
1965 11-06-2021 19:40:00 27.5 C 55 % 17.65 C
1966 11-06-2021 19:45:00 27.4 C 55 % 17.56 C
1967 11-06-2021 19:50:00 27.3 C 56 % 17.75 C
1968 11-06-2021 19:55:00 27.2 C 56 % 17.66 C
1969 11-06-2021 20:00:00 27 C 56 % 17.47 C
1970 11-06-2021 20:05:00 26.9 C 56 % 17.38 C
1971 11-06-2021 20:10:00 26.7 C 57 % 17.47 C
1972 11-06-2021 20:15:00 26.7 C 58 % 17.75 C
1973 11-06-2021 20:20:00 26.6 C 58 % 17.66 C
1974 11-06-2021 20:25:00 26.5 C 57 % 17.29 C
1975 11-06-2021 20:30:00 26.4 C 58 % 17.47 C
Sensor: Nr:Datum:Temp:Feuchte:Taupunkt:
Aussen-T/F 1976 11-06-2021 20:35:00 26.3 C 58 % 17.38 C
1977 11-06-2021 20:40:00 26.1 C 59 % 17.46 C
1978 11-06-2021 20:45:00 25.9 C 57 % 16.73 C
1979 11-06-2021 20:50:00 25.8 C 59 % 17.18 C
1980 11-06-2021 20:55:00 25.7 C 58 % 16.82 C
1981 11-06-2021 21:00:00 25.6 C 59 % 16.99 C
1982 11-06-2021 21:05:00 25.4 C 59 % 16.81 C
1983 11-06-2021 21:10:00 25.3 C 58 % 16.44 C
1984 11-06-2021 21:15:00 25.1 C 59 % 16.52 C
1985 11-06-2021 21:20:00 24.9 C 58 % 16.07 C
1986 11-06-2021 21:25:00 24.8 C 63 % 17.28 C
1987 11-06-2021 21:30:00 24.4 C 65 % 17.39 C
1988 11-06-2021 21:35:00 24 C 67 % 17.49 C
1989 11-06-2021 21:40:00 23.4 C 69 % 17.39 C
1990 11-06-2021 21:45:00 22.8 C 68 % 16.59 C
1991 11-06-2021 21:50:00 22.5 C 69 % 16.53 C
1992 11-06-2021 21:55:00 22.2 C 71 % 16.69 C
1993 11-06-2021 22:00:00 21.9 C 73 % 16.84 C
1994 11-06-2021 22:05:00 21.7 C 74 % 16.86 C
1995 11-06-2021 22:10:00 21.3 C 75 % 16.69 C
1996 11-06-2021 22:15:00 21.1 C 75 % 16.5 C
1997 11-06-2021 22:20:00 20.8 C 75 % 16.21 C
1998 11-06-2021 22:25:00 20.7 C 76 % 16.32 C
1999 11-06-2021 22:30:00 20.6 C 76 % 16.22 C
2000 11-06-2021 22:35:00 20.4 C 76 % 16.03 C
Sensor: Nr:Datum:Temp:Feuchte:Taupunkt:
Aussen-T/F 2001 11-06-2021 22:40:00 20.3 C 76 % 15.93 C
2002 11-06-2021 22:45:00 20.3 C 77 % 16.14 C
2003 11-06-2021 22:50:00 20.2 C 77 % 16.04 C
2004 11-06-2021 22:55:00 20.1 C 77 % 15.94 C
2005 11-06-2021 23:00:00 20.1 C 78 % 16.14 C
2006 11-06-2021 23:05:00 19.9 C 78 % 15.95 C
2007 11-06-2021 23:10:00 19.8 C 79 % 16.05 C
2008 11-06-2021 23:15:00 19.6 C 79 % 15.86 C
2009 11-06-2021 23:20:00 19.3 C 80 % 15.76 C
2010 11-06-2021 23:25:00 19.2 C 81 % 15.86 C
2011 11-06-2021 23:30:00 19 C 81 % 15.67 C
2012 11-06-2021 23:35:00 18.8 C 82 % 15.66 C
2013 11-06-2021 23:40:00 18.7 C 83 % 15.75 C
2014 11-06-2021 23:45:00 18.5 C 83 % 15.56 C
2015 11-06-2021 23:50:00 18.3 C 83 % 15.36 C
2016 11-06-2021 23:55:00 18.2 C 84 % 15.45 C

Legende:
   Min
   Max


Maximal/Minimal-Werte vom 05.06.2021 - 11.06.2021

Sensor Min Max Avg
Temp
(Aussen-T/F)
13.2 °C
09-06-2021  05:30:00
30 °C
11-06-2021  17:45:00
18.67 °C
Feuchte
(Aussen-T/F)
35 %
10-06-2021  17:05:00
97 %
05-06-2021  02:40:00
82.11 %
Taupunkt
(Aussen-T/F)
11.07 C
10-06-2021  15:00:00
18.87 C
05-06-2021  16:35:00
15.11 C

Die Daten stammen von einer Davis Vantage Pro 2 Wetter-Station und werden unter Linux mit der Software wview2wettercgi und aufbereitet. Alle Angaben erfolgen ohne Gewähr für ihre Vollständigkeit oder Richtigkeit.
Kontakt: Rainer Krienke krienke@uni-koblenz.de . Meine Webseiten an der Uni Koblenz oder privat.
Version: $Revision: 0.78 $